<?xml version='1.0' encoding='UTF-8'?><gpx version="1.1" creator="JPX - https://github.com/jenetics/jpx" xmlns="http://www.topografix.com/GPX/1/1"><trk><trkseg><trkpt lat="45.51411056868456" lon="7.901463036327929"><ele>606.0</ele><time>2026-03-27T15:58:26Z</time></trkpt><trkpt lat="45.51424598537898" lon="7.901512859720046"><ele>606.0</ele><time>2026-03-27T15:59:18Z</time></trkpt><trkpt lat="45.51433429577199" lon="7.901417101276043"><ele>606.0</ele><time>2026-03-27T15:59:20Z</time></trkpt><trkpt lat="45.51444544950057" lon="7.901367034507498"><ele>606.0</ele><time>2026-03-27T15:59:22Z</time></trkpt><trkpt lat="45.51453915952737" lon="7.901386506116998"><ele>612.0</ele><time>2026-03-27T15:59:24Z</time></trkpt><trkpt lat="45.51459867861891" lon="7.901483665753757"><ele>618.0</ele><time>2026-03-27T15:59:26Z</time></trkpt><trkpt lat="45.51461605919078" lon="7.9016497789077"><ele>624.0</ele><time>2026-03-27T15:59:28Z</time></trkpt><trkpt lat="45.51467158432026" lon="7.901774622024213"><ele>630.0</ele><time>2026-03-27T15:59:30Z</time></trkpt><trkpt lat="45.514863666988134" lon="7.901677793350018"><ele>630.0</ele><time>2026-03-27T15:59:35Z</time></trkpt><trkpt lat="45.514950697714085" lon="7.901569485040489"><ele>630.0</ele><time>2026-03-27T15:59:37Z</time></trkpt><trkpt lat="45.51503281892739" lon="7.90149217511312"><ele>630.0</ele><time>2026-03-27T15:59:39Z</time></trkpt><trkpt lat="45.51509729756662" lon="7.901573485868411"><ele>630.0</ele><time>2026-03-27T15:59:43Z</time></trkpt><trkpt lat="45.51508936054239" lon="7.901683805274106"><ele>630.0</ele><time>2026-03-27T15:59:46Z</time></trkpt><trkpt lat="45.5150636630489" lon="7.901833606316827"><ele>632.1666666666666</ele><time>2026-03-27T15:59:48Z</time></trkpt><trkpt lat="45.51507798619295" lon="7.901983415531616"><ele>634.3333333333334</ele><time>2026-03-27T15:59:50Z</time></trkpt><trkpt lat="45.51508230366469" lon="7.902074923428599"><ele>636.5</ele><time>2026-03-27T15:59:51Z</time></trkpt><trkpt lat="45.51505540902084" lon="7.902216319806634"><ele>638.6666666666667</ele><time>2026-03-27T15:59:53Z</time></trkpt><trkpt lat="45.51501759625571" lon="7.902346328425478"><ele>640.8333333333334</ele><time>2026-03-27T15:59:55Z</time></trkpt><trkpt lat="45.51501358161257" lon="7.902439064207739"><ele>643.0</ele><time>2026-03-27T15:59:56Z</time></trkpt><trkpt lat="45.5150090423365" lon="7.902566432212439"><ele>646.3333333333334</ele><time>2026-03-27T15:59:58Z</time></trkpt><trkpt lat="45.51502193784524" lon="7.9026634278086325"><ele>649.6666666666667</ele><time>2026-03-27T15:59:59Z</time></trkpt><trkpt lat="45.51503622497085" lon="7.902755189129755"><ele>653.0</ele><time>2026-03-27T16:00:00Z</time></trkpt><trkpt lat="45.51503336320852" lon="7.902883756533354"><ele>656.3333333333334</ele><time>2026-03-27T16:00:02Z</time></trkpt><trkpt lat="45.51500443509988" lon="7.9029643139327606"><ele>659.6666666666666</ele><time>2026-03-27T16:00:03Z</time></trkpt><trkpt lat="45.51496945980912" lon="7.903078747819437"><ele>663.0</ele><time>2026-03-27T16:00:04Z</time></trkpt><trkpt lat="45.51493521077265" lon="7.9032461652401045"><ele>663.0</ele><time>2026-03-27T16:00:06Z</time></trkpt><trkpt lat="45.51489898179379" lon="7.90337590883541"><ele>663.0</ele><time>2026-03-27T16:00:08Z</time></trkpt><trkpt lat="45.514902462016735" lon="7.903548130244429"><ele>663.0</ele><time>2026-03-27T16:00:10Z</time></trkpt><trkpt lat="45.514887634549616" lon="7.903703127366137"><ele>663.0</ele><time>2026-03-27T16:00:12Z</time></trkpt><trkpt lat="45.51487900402338" lon="7.903805389618783"><ele>663.0</ele><time>2026-03-27T16:00:14Z</time></trkpt><trkpt lat="45.51485541593806" lon="7.903952821147605"><ele>666.4</ele><time>2026-03-27T16:00:18Z</time></trkpt><trkpt lat="45.51484786603251" lon="7.904087274865073"><ele>669.8</ele><time>2026-03-27T16:00:21Z</time></trkpt><trkpt lat="45.5148058558318" lon="7.904235804425823"><ele>673.2</ele><time>2026-03-27T16:00:23Z</time></trkpt><trkpt lat="45.51476227040551" lon="7.904353669239402"><ele>676.6</ele><time>2026-03-27T16:00:25Z</time></trkpt><trkpt lat="45.51471089203803" lon="7.904473017740592"><ele>680.0</ele><time>2026-03-27T16:00:27Z</time></trkpt><trkpt lat="45.51464813576944" lon="7.904590980027956"><ele>680.0</ele><time>2026-03-27T16:00:29Z</time></trkpt><trkpt lat="45.51460364601298" lon="7.904691349742071"><ele>680.0</ele><time>2026-03-27T16:00:31Z</time></trkpt><trkpt lat="45.51454829104911" lon="7.904843389359909"><ele>680.0</ele><time>2026-03-27T16:00:33Z</time></trkpt><trkpt lat="45.514517509224326" lon="7.904927066039013"><ele>680.0</ele><time>2026-03-27T16:00:34Z</time></trkpt><trkpt lat="45.514502048226525" lon="7.905024578424155"><ele>680.0</ele><time>2026-03-27T16:00:35Z</time></trkpt><trkpt lat="45.514466977665485" lon="7.905155098574367"><ele>680.0</ele><time>2026-03-27T16:00:37Z</time></trkpt><trkpt lat="45.51443815271937" lon="7.905277106014669"><ele>680.0</ele><time>2026-03-27T16:00:39Z</time></trkpt><trkpt lat="45.51440310393459" lon="7.905400108761256"><ele>680.0</ele><time>2026-03-27T16:00:41Z</time></trkpt><trkpt lat="45.51437403531035" lon="7.90555307015316"><ele>680.0</ele><time>2026-03-27T16:00:43Z</time></trkpt><trkpt lat="45.51435468523438" lon="7.905735891576805"><ele>680.0</ele><time>2026-03-27T16:00:45Z</time></trkpt><trkpt lat="45.514346981497205" lon="7.905839982032204"><ele>680.0</ele><time>2026-03-27T16:00:46Z</time></trkpt><trkpt lat="45.514298222617775" lon="7.905995464145481"><ele>684.8</ele><time>2026-03-27T16:00:48Z</time></trkpt><trkpt lat="45.514270815164046" lon="7.906087276762286"><ele>689.6</ele><time>2026-03-27T16:00:49Z</time></trkpt><trkpt lat="45.514224656936754" lon="7.906230931448429"><ele>694.4000000000001</ele><time>2026-03-27T16:00:51Z</time></trkpt><trkpt lat="45.51419125359101" lon="7.906366421539047"><ele>699.2</ele><time>2026-03-27T16:00:53Z</time></trkpt><trkpt lat="45.514177855366356" lon="7.906514915266778"><ele>704.0</ele><time>2026-03-27T16:00:55Z</time></trkpt><trkpt lat="45.51416126943243" lon="7.906675509385258"><ele>707.3333333333333</ele><time>2026-03-27T16:00:57Z</time></trkpt><trkpt lat="45.514137360639374" lon="7.906828801697975"><ele>710.6666666666666</ele><time>2026-03-27T16:00:59Z</time></trkpt><trkpt lat="45.514118458875416" lon="7.9069210416143525"><ele>714.0</ele><time>2026-03-27T16:01:00Z</time></trkpt><trkpt lat="45.51408582952239" lon="7.906998673632852"><ele>717.3333333333334</ele><time>2026-03-27T16:01:01Z</time></trkpt><trkpt lat="45.51404077495228" lon="7.907118351236448"><ele>720.6666666666667</ele><time>2026-03-27T16:01:03Z</time></trkpt><trkpt lat="45.51401913357756" lon="7.9072428649883335"><ele>724.0</ele><time>2026-03-27T16:01:05Z</time></trkpt><trkpt lat="45.51400435375741" lon="7.90739151719575"><ele>724.0</ele><time>2026-03-27T16:01:07Z</time></trkpt><trkpt lat="45.51398957133752" lon="7.907539942298206"><ele>724.0</ele><time>2026-03-27T16:01:09Z</time></trkpt><trkpt lat="45.51396162577954" lon="7.907717066651389"><ele>724.0</ele><time>2026-03-27T16:01:11Z</time></trkpt><trkpt lat="45.51392622996188" lon="7.90781268554655"><ele>724.0</ele><time>2026-03-27T16:01:12Z</time></trkpt><trkpt lat="45.51390520212573" lon="7.907898741152163"><ele>724.0</ele><time>2026-03-27T16:01:13Z</time></trkpt><trkpt lat="45.51386322635374" lon="7.908007274328094"><ele>727.75</ele><time>2026-03-27T16:01:15Z</time></trkpt><trkpt lat="45.5138628626247" lon="7.908179761035513"><ele>731.5</ele><time>2026-03-27T16:01:17Z</time></trkpt><trkpt lat="45.513832757603346" lon="7.908311237532863"><ele>735.25</ele><time>2026-03-27T16:01:19Z</time></trkpt><trkpt lat="45.51378754657075" lon="7.908540445310844"><ele>739.0</ele><time>2026-03-27T16:01:24Z</time></trkpt><trkpt lat="45.51375742525518" lon="7.9086797673659985"><ele>738.0</ele><time>2026-03-27T16:01:26Z</time></trkpt><trkpt lat="45.513712806997525" lon="7.908780504570898"><ele>737.0</ele><time>2026-03-27T16:01:28Z</time></trkpt><trkpt lat="45.513712682224394" lon="7.908958470018624"><ele>736.0</ele><time>2026-03-27T16:01:30Z</time></trkpt><trkpt lat="45.51370984189139" lon="7.909051775715061"><ele>735.0</ele><time>2026-03-27T16:01:32Z</time></trkpt><trkpt lat="45.51371551943041" lon="7.909163431152021"><ele>734.0</ele><time>2026-03-27T16:01:34Z</time></trkpt><trkpt lat="45.513707808936374" lon="7.909261880037558"><ele>733.0</ele><time>2026-03-27T16:01:36Z</time></trkpt><trkpt lat="45.513696911176" lon="7.9093853745793306"><ele>733.0</ele><time>2026-03-27T16:01:38Z</time></trkpt><trkpt lat="45.51369202496915" lon="7.909537145211397"><ele>733.0</ele><time>2026-03-27T16:01:40Z</time></trkpt><trkpt lat="45.51370378094282" lon="7.909689419663043"><ele>733.0</ele><time>2026-03-27T16:01:42Z</time></trkpt><trkpt lat="45.51378212154338" lon="7.909763275549222"><ele>733.0</ele><time>2026-03-27T16:01:45Z</time></trkpt><trkpt lat="45.513816499301186" lon="7.9098540040606515"><ele>733.0</ele><time>2026-03-27T16:01:47Z</time></trkpt><trkpt lat="45.51379974599073" lon="7.909957917238748"><ele>736.0</ele><time>2026-03-27T16:01:49Z</time></trkpt><trkpt lat="45.51377386416684" lon="7.910091447837684"><ele>739.0</ele><time>2026-03-27T16:01:51Z</time></trkpt><trkpt lat="45.513770628859135" lon="7.910235185007003"><ele>742.0</ele><time>2026-03-27T16:01:53Z</time></trkpt><trkpt lat="45.51373917270706" lon="7.910426390709607"><ele>745.0</ele><time>2026-03-27T16:01:55Z</time></trkpt><trkpt lat="45.51371503467613" lon="7.910546022632738"><ele>748.0</ele><time>2026-03-27T16:01:56Z</time></trkpt><trkpt lat="45.51369053328331" lon="7.910706100062225"><ele>748.0</ele><time>2026-03-27T16:01:57Z</time></trkpt><trkpt lat="45.51365838545916" lon="7.910884207721064"><ele>748.0</ele><time>2026-03-27T16:01:58Z</time></trkpt><trkpt lat="45.5136327492475" lon="7.911035044797553"><ele>748.0</ele><time>2026-03-27T16:01:59Z</time></trkpt><trkpt lat="45.51361307652586" lon="7.911177575112155"><ele>748.0</ele><time>2026-03-27T16:02:00Z</time></trkpt><trkpt lat="45.51359383187182" lon="7.911294088397495"><ele>748.0</ele><time>2026-03-27T16:02:01Z</time></trkpt><trkpt lat="45.51357235402636" lon="7.9113915782577795"><ele>749.2</ele><time>2026-03-27T16:02:02Z</time></trkpt><trkpt lat="45.51354641260511" lon="7.911552038291314"><ele>750.4</ele><time>2026-03-27T16:02:04Z</time></trkpt><trkpt lat="45.51352418758958" lon="7.9116986881099605"><ele>751.6</ele><time>2026-03-27T16:02:06Z</time></trkpt><trkpt lat="45.5135197451748" lon="7.911819462696641"><ele>752.8000000000001</ele><time>2026-03-27T16:02:08Z</time></trkpt><trkpt lat="45.51355076857874" lon="7.911924234501047"><ele>754.0</ele><time>2026-03-27T16:02:10Z</time></trkpt><trkpt lat="45.51350518991991" lon="7.91200976802106"><ele>754.0</ele><time>2026-03-27T16:02:13Z</time></trkpt><trkpt lat="45.51349289413725" lon="7.912122149421612"><ele>754.0</ele><time>2026-03-27T16:02:18Z</time></trkpt><trkpt lat="45.51347899530256" lon="7.912218805060124"><ele>754.0</ele><time>2026-03-27T16:02:20Z</time></trkpt><trkpt lat="45.51340627532847" lon="7.912301337408486"><ele>754.0</ele><time>2026-03-27T16:02:22Z</time></trkpt><trkpt lat="45.513358444875266" lon="7.91240118972086"><ele>754.0</ele><time>2026-03-27T16:02:24Z</time></trkpt><trkpt lat="45.5133045227052" lon="7.912485453202501"><ele>754.0</ele><time>2026-03-27T16:02:26Z</time></trkpt><trkpt lat="45.51322062778001" lon="7.912557879216428"><ele>752.7142857142857</ele><time>2026-03-27T16:02:28Z</time></trkpt><trkpt lat="45.51317448580486" lon="7.912649059730941"><ele>751.4285714285714</ele><time>2026-03-27T16:02:30Z</time></trkpt><trkpt lat="45.51311995750097" lon="7.912719972913289"><ele>750.1428571428571</ele><time>2026-03-27T16:02:32Z</time></trkpt><trkpt lat="45.51308329214412" lon="7.912796617393975"><ele>748.8571428571429</ele><time>2026-03-27T16:02:34Z</time></trkpt><trkpt lat="45.51304451887914" lon="7.912886471044118"><ele>747.5714285714286</ele><time>2026-03-27T16:02:36Z</time></trkpt><trkpt lat="45.513007758463765" lon="7.912988273168058"><ele>746.2857142857142</ele><time>2026-03-27T16:02:38Z</time></trkpt><trkpt lat="45.51294065655512" lon="7.913018439856359"><ele>745.0</ele><time>2026-03-27T16:02:41Z</time></trkpt><trkpt lat="45.512855451074195" lon="7.9131097769451175"><ele>745.0</ele><time>2026-03-27T16:02:43Z</time></trkpt><trkpt lat="45.512802088827286" lon="7.913266556556773"><ele>745.0</ele><time>2026-03-27T16:02:45Z</time></trkpt><trkpt lat="45.512738416257115" lon="7.913360509093441"><ele>745.0</ele><time>2026-03-27T16:02:47Z</time></trkpt><trkpt lat="45.51265803526482" lon="7.913499623952085"><ele>745.0</ele><time>2026-03-27T16:02:49Z</time></trkpt><trkpt lat="45.51261505153865" lon="7.913568502228466"><ele>745.0</ele><time>2026-03-27T16:02:50Z</time></trkpt><trkpt lat="45.51254099195778" lon="7.913660755935415"><ele>745.2</ele><time>2026-03-27T16:02:52Z</time></trkpt><trkpt lat="45.512470456307646" lon="7.913708719318563"><ele>745.4</ele><time>2026-03-27T16:02:54Z</time></trkpt><trkpt lat="45.51241398390655" lon="7.913839562232379"><ele>745.5999999999999</ele><time>2026-03-27T16:02:56Z</time></trkpt><trkpt lat="45.51234531413398" lon="7.913970099797795"><ele>745.8</ele><time>2026-03-27T16:02:58Z</time></trkpt><trkpt lat="45.512270349630256" lon="7.914040741843296"><ele>746.0</ele><time>2026-03-27T16:03:00Z</time></trkpt><trkpt lat="45.51220950936042" lon="7.914113972300483"><ele>746.0</ele><time>2026-03-27T16:03:02Z</time></trkpt><trkpt lat="45.512171372001255" lon="7.914196120646601"><ele>746.0</ele><time>2026-03-27T16:03:03Z</time></trkpt><trkpt lat="45.512089372466875" lon="7.914328583434774"><ele>746.0</ele><time>2026-03-27T16:03:05Z</time></trkpt><trkpt lat="45.51199836747825" lon="7.914461765041837"><ele>746.0</ele><time>2026-03-27T16:03:07Z</time></trkpt><trkpt lat="45.51191275814655" lon="7.914551806097351"><ele>746.0</ele><time>2026-03-27T16:03:09Z</time></trkpt><trkpt lat="45.51184336477348" lon="7.914628483113625"><ele>745.8333333333333</ele><time>2026-03-27T16:03:11Z</time></trkpt><trkpt lat="45.51178242967732" lon="7.914706484030291"><ele>745.6666666666666</ele><time>2026-03-27T16:03:13Z</time></trkpt><trkpt lat="45.51174885633017" lon="7.914783856519256"><ele>745.5</ele><time>2026-03-27T16:03:14Z</time></trkpt><trkpt lat="45.51169616328125" lon="7.914881131783062"><ele>745.3333333333334</ele><time>2026-03-27T16:03:16Z</time></trkpt><trkpt lat="45.51163223608953" lon="7.914974132332115"><ele>745.1666666666667</ele><time>2026-03-27T16:03:18Z</time></trkpt><trkpt lat="45.51158672679699" lon="7.915056807056036"><ele>745.0</ele><time>2026-03-27T16:03:20Z</time></trkpt><trkpt lat="45.51151661459399" lon="7.915118961190707"><ele>743.5</ele><time>2026-03-27T16:03:22Z</time></trkpt><trkpt lat="45.511489464530236" lon="7.915219603652352"><ele>742.0</ele><time>2026-03-27T16:03:24Z</time></trkpt><trkpt lat="45.511418215452395" lon="7.915304951209876"><ele>740.5</ele><time>2026-03-27T16:03:26Z</time></trkpt><trkpt lat="45.51135243516468" lon="7.9153714769275645"><ele>739.0</ele><time>2026-03-27T16:03:30Z</time></trkpt><trkpt lat="45.51129923233378" lon="7.915430799473239"><ele>737.5</ele><time>2026-03-27T16:03:33Z</time></trkpt><trkpt lat="45.51125961462914" lon="7.915563009547668"><ele>736.0</ele><time>2026-03-27T16:03:35Z</time></trkpt><trkpt lat="45.511242649786276" lon="7.915655011307148"><ele>736.6666666666667</ele><time>2026-03-27T16:03:38Z</time></trkpt><trkpt lat="45.51119328246439" lon="7.915716315476026"><ele>737.3333333333334</ele><time>2026-03-27T16:03:40Z</time></trkpt><trkpt lat="45.51113799067318" lon="7.915799494144963"><ele>738.0</ele><time>2026-03-27T16:03:43Z</time></trkpt><trkpt lat="45.51105712186643" lon="7.915910850696574"><ele>738.6666666666666</ele><time>2026-03-27T16:03:45Z</time></trkpt><trkpt lat="45.511031723334185" lon="7.916019977980311"><ele>739.3333333333333</ele><time>2026-03-27T16:03:47Z</time></trkpt><trkpt lat="45.51098648615683" lon="7.916109527321698"><ele>740.0</ele><time>2026-03-27T16:03:49Z</time></trkpt><trkpt lat="45.51090127168782" lon="7.916208903402093"><ele>740.5</ele><time>2026-03-27T16:03:51Z</time></trkpt><trkpt lat="45.510836543731806" lon="7.916338462780013"><ele>741.0</ele><time>2026-03-27T16:03:53Z</time></trkpt><trkpt lat="45.510792406459366" lon="7.916421058993174"><ele>741.5</ele><time>2026-03-27T16:03:55Z</time></trkpt><trkpt lat="45.51074929060318" lon="7.916527884278766"><ele>742.0</ele><time>2026-03-27T16:03:57Z</time></trkpt><trkpt lat="45.51069647845637" lon="7.916622117573699"><ele>742.5</ele><time>2026-03-27T16:03:59Z</time></trkpt><trkpt lat="45.51060712113934" lon="7.916660529061609"><ele>743.0</ele><time>2026-03-27T16:04:01Z</time></trkpt><trkpt lat="45.51055418049072" lon="7.916815585283903"><ele>742.5999999999999</ele><time>2026-03-27T16:04:03Z</time></trkpt><trkpt lat="45.51046076054682" lon="7.916940508314708"><ele>742.1999999999999</ele><time>2026-03-27T16:04:05Z</time></trkpt><trkpt lat="45.51040887531891" lon="7.917003189628518"><ele>741.8</ele><time>2026-03-27T16:04:06Z</time></trkpt><trkpt lat="45.51037263020749" lon="7.917126666947339"><ele>741.4</ele><time>2026-03-27T16:04:07Z</time></trkpt><trkpt lat="45.51034147341632" lon="7.917253950724394"><ele>741.0</ele><time>2026-03-27T16:04:08Z</time></trkpt><trkpt lat="45.51029270693158" lon="7.9173521945060426"><ele>741.0</ele><time>2026-03-27T16:04:09Z</time></trkpt><trkpt lat="45.510217644890574" lon="7.917437825257053"><ele>741.0</ele><time>2026-03-27T16:04:10Z</time></trkpt><trkpt lat="45.51013946603969" lon="7.917531142751847"><ele>741.0</ele><time>2026-03-27T16:04:11Z</time></trkpt><trkpt lat="45.510059000638385" lon="7.917607194327569"><ele>741.0</ele><time>2026-03-27T16:04:12Z</time></trkpt><trkpt lat="45.50997856443234" lon="7.917695220587022"><ele>741.0</ele><time>2026-03-27T16:04:13Z</time></trkpt><trkpt lat="45.509877647537735" lon="7.917783664172156"><ele>740.3333333333334</ele><time>2026-03-27T16:04:14Z</time></trkpt><trkpt lat="45.5098202921172" lon="7.917858676424062"><ele>739.6666666666666</ele><time>2026-03-27T16:04:15Z</time></trkpt><trkpt lat="45.509772574523076" lon="7.9179379192039345"><ele>739.0</ele><time>2026-03-27T16:04:16Z</time></trkpt><trkpt lat="45.50972458016611" lon="7.918058897704766"><ele>738.3333333333333</ele><time>2026-03-27T16:04:18Z</time></trkpt><trkpt lat="45.50968330997386" lon="7.918128977462504"><ele>737.6666666666666</ele><time>2026-03-27T16:04:19Z</time></trkpt><trkpt lat="45.509630330002864" lon="7.9182382657753045"><ele>737.0</ele><time>2026-03-27T16:04:20Z</time></trkpt><trkpt lat="45.50959296511891" lon="7.918376699235977"><ele>738.0</ele><time>2026-03-27T16:04:21Z</time></trkpt><trkpt lat="45.5095110891462" lon="7.918488634505896"><ele>739.0</ele><time>2026-03-27T16:04:22Z</time></trkpt><trkpt lat="45.50941841898628" lon="7.918624533639121"><ele>740.0</ele><time>2026-03-27T16:04:23Z</time></trkpt><trkpt lat="45.50932266111432" lon="7.918735720359899"><ele>741.0</ele><time>2026-03-27T16:04:24Z</time></trkpt><trkpt lat="45.50923682309395" lon="7.918842619204535"><ele>741.0</ele><time>2026-03-27T16:04:25Z</time></trkpt><trkpt lat="45.50915186605267" lon="7.918933783714869"><ele>741.0</ele><time>2026-03-27T16:04:26Z</time></trkpt><trkpt lat="45.50904131249201" lon="7.919021213530204"><ele>741.0</ele><time>2026-03-27T16:04:27Z</time></trkpt><trkpt lat="45.50896998554119" lon="7.919098884038147"><ele>741.0</ele><time>2026-03-27T16:04:28Z</time></trkpt><trkpt lat="45.50890436770151" lon="7.919188835566196"><ele>741.0</ele><time>2026-03-27T16:04:29Z</time></trkpt><trkpt lat="45.50883190223672" lon="7.919291194453807"><ele>739.3333333333334</ele><time>2026-03-27T16:04:30Z</time></trkpt><trkpt lat="45.508747375809854" lon="7.91936713207088"><ele>737.6666666666666</ele><time>2026-03-27T16:04:31Z</time></trkpt><trkpt lat="45.5086735015242" lon="7.919424361722964"><ele>736.0</ele><time>2026-03-27T16:04:32Z</time></trkpt><trkpt lat="45.508599725070475" lon="7.9194852461500105"><ele>734.3333333333333</ele><time>2026-03-27T16:04:33Z</time></trkpt><trkpt lat="45.50854542887813" lon="7.919544055469401"><ele>732.6666666666666</ele><time>2026-03-27T16:04:34Z</time></trkpt><trkpt lat="45.50849860335598" lon="7.919628886709181"><ele>731.0</ele><time>2026-03-27T16:04:35Z</time></trkpt><trkpt lat="45.50843658156898" lon="7.919762699708126"><ele>730.5</ele><time>2026-03-27T16:04:36Z</time></trkpt><trkpt lat="45.50839127728422" lon="7.919950309453749"><ele>730.0</ele><time>2026-03-27T16:04:37Z</time></trkpt><trkpt lat="45.50835892879236" lon="7.920103401196077"><ele>729.5</ele><time>2026-03-27T16:04:38Z</time></trkpt><trkpt lat="45.50832364789573" lon="7.92025820334039"><ele>729.0</ele><time>2026-03-27T16:04:39Z</time></trkpt><trkpt lat="45.508289728025005" lon="7.9203743100372215"><ele>729.0</ele><time>2026-03-27T16:04:40Z</time></trkpt><trkpt lat="45.508248563120766" lon="7.920481540110795"><ele>729.0</ele><time>2026-03-27T16:04:41Z</time></trkpt><trkpt lat="45.5082188224431" lon="7.920572134395315"><ele>729.0</ele><time>2026-03-27T16:04:42Z</time></trkpt><trkpt lat="45.50818948029613" lon="7.920663366750528"><ele>729.0</ele><time>2026-03-27T16:04:43Z</time></trkpt><trkpt lat="45.50813549907775" lon="7.920792536111321"><ele>729.0</ele><time>2026-03-27T16:04:45Z</time></trkpt><trkpt lat="45.508095910344295" lon="7.92088262579229"><ele>729.0</ele><time>2026-03-27T16:04:47Z</time></trkpt><trkpt lat="45.50806356575442" lon="7.920969195173799"><ele>729.75</ele><time>2026-03-27T16:04:49Z</time></trkpt><trkpt lat="45.508005524329434" lon="7.921119692967674"><ele>730.5</ele><time>2026-03-27T16:04:51Z</time></trkpt><trkpt lat="45.50794850384577" lon="7.921243363194856"><ele>731.25</ele><time>2026-03-27T16:04:52Z</time></trkpt><trkpt lat="45.507884729129835" lon="7.9213856092713275"><ele>732.0</ele><time>2026-03-27T16:04:53Z</time></trkpt><trkpt lat="45.507797068904814" lon="7.921533291686041"><ele>732.0</ele><time>2026-03-27T16:04:54Z</time></trkpt><trkpt lat="45.50774397002133" lon="7.921645770626893"><ele>732.0</ele><time>2026-03-27T16:04:55Z</time></trkpt><trkpt lat="45.50769173554224" lon="7.9217576491233705"><ele>732.0</ele><time>2026-03-27T16:04:56Z</time></trkpt><trkpt lat="45.507644205085754" lon="7.921859109211319"><ele>732.0</ele><time>2026-03-27T16:04:57Z</time></trkpt><trkpt lat="45.507561042952446" lon="7.921977015516139"><ele>732.0</ele><time>2026-03-27T16:04:58Z</time></trkpt><trkpt lat="45.50747270657717" lon="7.922101608076731"><ele>730.5</ele><time>2026-03-27T16:04:59Z</time></trkpt><trkpt lat="45.50738851855573" lon="7.922227176043196"><ele>729.0</ele><time>2026-03-27T16:05:00Z</time></trkpt><trkpt lat="45.50730951401379" lon="7.922357162196906"><ele>727.5</ele><time>2026-03-27T16:05:01Z</time></trkpt><trkpt lat="45.50724421972024" lon="7.922481948684685"><ele>726.0</ele><time>2026-03-27T16:05:02Z</time></trkpt><trkpt lat="45.50718008503075" lon="7.922601844122378"><ele>726.0</ele><time>2026-03-27T16:05:03Z</time></trkpt><trkpt lat="45.507115998624776" lon="7.922687682543918"><ele>726.0</ele><time>2026-03-27T16:05:04Z</time></trkpt><trkpt lat="45.50705008530209" lon="7.922778060786841"><ele>726.0</ele><time>2026-03-27T16:05:05Z</time></trkpt><trkpt lat="45.506980753860184" lon="7.922863339199838"><ele>726.0</ele><time>2026-03-27T16:05:06Z</time></trkpt><trkpt lat="45.506902088787406" lon="7.922948670277533"><ele>726.0</ele><time>2026-03-27T16:05:07Z</time></trkpt><trkpt lat="45.506825730263564" lon="7.9230385408363535"><ele>726.0</ele><time>2026-03-27T16:05:08Z</time></trkpt><trkpt lat="45.50675221282048" lon="7.923139385391815"><ele>726.0</ele><time>2026-03-27T16:05:09Z</time></trkpt><trkpt lat="45.506681035705526" lon="7.923243921606289"><ele>726.0</ele><time>2026-03-27T16:05:10Z</time></trkpt><trkpt lat="45.50661496587774" lon="7.923344031041425"><ele>726.0</ele><time>2026-03-27T16:05:11Z</time></trkpt><trkpt lat="45.50655550036065" lon="7.923450403879879"><ele>726.0</ele><time>2026-03-27T16:05:12Z</time></trkpt><trkpt lat="45.50650109211607" lon="7.9235567422407405"><ele>726.0</ele><time>2026-03-27T16:05:13Z</time></trkpt><trkpt lat="45.506458224174864" lon="7.923655983077659"><ele>726.0</ele><time>2026-03-27T16:05:14Z</time></trkpt><trkpt lat="45.50639979383313" lon="7.9237971854348555"><ele>726.0</ele><time>2026-03-27T16:05:16Z</time></trkpt><trkpt lat="45.50634501294782" lon="7.923891965568852"><ele>726.0</ele><time>2026-03-27T16:05:24Z</time></trkpt><trkpt lat="45.5062890562817" lon="7.924082625129035"><ele>726.0</ele><time>2026-03-27T16:05:26Z</time></trkpt><trkpt lat="45.50622925561179" lon="7.924188807587371"><ele>724.5</ele><time>2026-03-27T16:05:27Z</time></trkpt><trkpt lat="45.506154575840526" lon="7.924323679891901"><ele>723.0</ele><time>2026-03-27T16:05:28Z</time></trkpt><trkpt lat="45.50606763763679" lon="7.924485089255405"><ele>721.5</ele><time>2026-03-27T16:05:29Z</time></trkpt><trkpt lat="45.505969927458224" lon="7.924669658439286"><ele>720.0</ele><time>2026-03-27T16:05:30Z</time></trkpt><trkpt lat="45.50588487029562" lon="7.924833857314471"><ele>720.0</ele><time>2026-03-27T16:05:31Z</time></trkpt><trkpt lat="45.50580929144977" lon="7.924983159289146"><ele>720.0</ele><time>2026-03-27T16:05:32Z</time></trkpt><trkpt lat="45.50574813691248" lon="7.925111742747446"><ele>720.0</ele><time>2026-03-27T16:05:33Z</time></trkpt><trkpt lat="45.50569153606347" lon="7.925251629084557"><ele>720.0</ele><time>2026-03-27T16:05:34Z</time></trkpt><trkpt lat="45.50562262733026" lon="7.925381434417805"><ele>720.0</ele><time>2026-03-27T16:05:35Z</time></trkpt><trkpt lat="45.50554858731932" lon="7.925509762363407"><ele>720.0</ele><time>2026-03-27T16:05:36Z</time></trkpt><trkpt lat="45.505476149875676" lon="7.925621180588279"><ele>720.0</ele><time>2026-03-27T16:05:37Z</time></trkpt><trkpt lat="45.5053866350936" lon="7.9257313655113695"><ele>720.0</ele><time>2026-03-27T16:05:38Z</time></trkpt><trkpt lat="45.50531202428566" lon="7.92583319651959"><ele>720.0</ele><time>2026-03-27T16:05:39Z</time></trkpt><trkpt lat="45.50523130712875" lon="7.925945609622145"><ele>718.25</ele><time>2026-03-27T16:05:40Z</time></trkpt><trkpt lat="45.50515739438896" lon="7.926057537190414"><ele>716.5</ele><time>2026-03-27T16:05:41Z</time></trkpt><trkpt lat="45.505083657109935" lon="7.926179146569365"><ele>714.75</ele><time>2026-03-27T16:05:42Z</time></trkpt><trkpt lat="45.505008865299864" lon="7.926303646116665"><ele>713.0</ele><time>2026-03-27T16:05:43Z</time></trkpt><trkpt lat="45.504930039133484" lon="7.926435760505087"><ele>713.0</ele><time>2026-03-27T16:05:44Z</time></trkpt><trkpt lat="45.50485016328726" lon="7.926577611228665"><ele>713.0</ele><time>2026-03-27T16:05:45Z</time></trkpt><trkpt lat="45.5047715752399" lon="7.926711520520505"><ele>713.0</ele><time>2026-03-27T16:05:46Z</time></trkpt><trkpt lat="45.504691306295044" lon="7.926842044971477"><ele>713.0</ele><time>2026-03-27T16:05:47Z</time></trkpt><trkpt lat="45.504629768187186" lon="7.926966120617368"><ele>713.2</ele><time>2026-03-27T16:05:48Z</time></trkpt><trkpt lat="45.50457498582873" lon="7.927085606109079"><ele>713.4</ele><time>2026-03-27T16:05:49Z</time></trkpt><trkpt lat="45.504520646135504" lon="7.927196756138879"><ele>713.6</ele><time>2026-03-27T16:05:50Z</time></trkpt><trkpt lat="45.504445576198236" lon="7.927309822297501"><ele>713.8000000000001</ele><time>2026-03-27T16:05:51Z</time></trkpt><trkpt lat="45.504360893748846" lon="7.927411881839304"><ele>714.0</ele><time>2026-03-27T16:05:52Z</time></trkpt><trkpt lat="45.50427767166394" lon="7.927521731800489"><ele>712.0</ele><time>2026-03-27T16:05:53Z</time></trkpt><trkpt lat="45.50419931794934" lon="7.92762293636515"><ele>710.0</ele><time>2026-03-27T16:05:54Z</time></trkpt><trkpt lat="45.50413542255368" lon="7.927747189855679"><ele>708.0</ele><time>2026-03-27T16:05:55Z</time></trkpt><trkpt lat="45.50407093478254" lon="7.927894461635548"><ele>706.0</ele><time>2026-03-27T16:05:56Z</time></trkpt><trkpt lat="45.503995087627075" lon="7.9280391228649645"><ele>706.0</ele><time>2026-03-27T16:05:57Z</time></trkpt><trkpt lat="45.50391818039072" lon="7.928162932989983"><ele>706.0</ele><time>2026-03-27T16:05:58Z</time></trkpt><trkpt lat="45.50383564598336" lon="7.928285205635089"><ele>706.0</ele><time>2026-03-27T16:05:59Z</time></trkpt><trkpt lat="45.503754096810226" lon="7.928393170118653"><ele>706.0</ele><time>2026-03-27T16:06:00Z</time></trkpt><trkpt lat="45.50367965335523" lon="7.928495122228878"><ele>706.0</ele><time>2026-03-27T16:06:01Z</time></trkpt><trkpt lat="45.5036036710321" lon="7.928621160877149"><ele>706.5999999999999</ele><time>2026-03-27T16:06:02Z</time></trkpt><trkpt lat="45.50353945140322" lon="7.9287761389960325"><ele>707.2</ele><time>2026-03-27T16:06:03Z</time></trkpt><trkpt lat="45.503479457909776" lon="7.928908405973281"><ele>707.8</ele><time>2026-03-27T16:06:04Z</time></trkpt><trkpt lat="45.50342545568372" lon="7.929029112124513"><ele>708.4000000000001</ele><time>2026-03-27T16:06:05Z</time></trkpt><trkpt lat="45.5033643373196" lon="7.929147699336162"><ele>709.0</ele><time>2026-03-27T16:06:06Z</time></trkpt><trkpt lat="45.503298691653114" lon="7.929259677121768"><ele>706.25</ele><time>2026-03-27T16:06:07Z</time></trkpt><trkpt lat="45.50320698923618" lon="7.929368250202582"><ele>703.5</ele><time>2026-03-27T16:06:08Z</time></trkpt><trkpt lat="45.503123034143954" lon="7.929487149383769"><ele>700.75</ele><time>2026-03-27T16:06:09Z</time></trkpt><trkpt lat="45.50305052871139" lon="7.929611344179722"><ele>698.0</ele><time>2026-03-27T16:06:10Z</time></trkpt><trkpt lat="45.50297172882401" lon="7.929731024952933"><ele>698.75</ele><time>2026-03-27T16:06:11Z</time></trkpt><trkpt lat="45.502888260542115" lon="7.9298601428385895"><ele>699.5</ele><time>2026-03-27T16:06:12Z</time></trkpt><trkpt lat="45.50281095796821" lon="7.93001951196977"><ele>700.25</ele><time>2026-03-27T16:06:13Z</time></trkpt><trkpt lat="45.50274051890814" lon="7.930197902183036"><ele>701.0</ele><time>2026-03-27T16:06:14Z</time></trkpt><trkpt lat="45.502677452515535" lon="7.930318730854292"><ele>701.0</ele><time>2026-03-27T16:06:15Z</time></trkpt><trkpt lat="45.502628403478" lon="7.930427873187761"><ele>701.0</ele><time>2026-03-27T16:06:16Z</time></trkpt><trkpt lat="45.502583201949534" lon="7.930547926872896"><ele>701.0</ele><time>2026-03-27T16:06:17Z</time></trkpt><trkpt lat="45.50253158294054" lon="7.930672054563202"><ele>701.0</ele><time>2026-03-27T16:06:18Z</time></trkpt><trkpt lat="45.50247909034054" lon="7.9308126900923455"><ele>701.0</ele><time>2026-03-27T16:06:19Z</time></trkpt><trkpt lat="45.50241204810124" lon="7.930957701459534"><ele>698.5</ele><time>2026-03-27T16:06:20Z</time></trkpt><trkpt lat="45.50234052027953" lon="7.931109950216606"><ele>696.0</ele><time>2026-03-27T16:06:21Z</time></trkpt><trkpt lat="45.50226952772605" lon="7.931231724227834"><ele>693.5</ele><time>2026-03-27T16:06:22Z</time></trkpt><trkpt lat="45.5021899444174" lon="7.931341881709442"><ele>691.0</ele><time>2026-03-27T16:06:23Z</time></trkpt><trkpt lat="45.502114591597774" lon="7.9314688780723"><ele>692.1999999999999</ele><time>2026-03-27T16:06:24Z</time></trkpt><trkpt lat="45.50204284145884" lon="7.931576357241974"><ele>693.4</ele><time>2026-03-27T16:06:25Z</time></trkpt><trkpt lat="45.50196919358079" lon="7.931691368496254"><ele>694.6</ele><time>2026-03-27T16:06:26Z</time></trkpt><trkpt lat="45.50190307209246" lon="7.931794810876956"><ele>695.8</ele><time>2026-03-27T16:06:27Z</time></trkpt><trkpt lat="45.50182116632078" lon="7.9318863400579875"><ele>697.0</ele><time>2026-03-27T16:06:28Z</time></trkpt><trkpt lat="45.5017180913705" lon="7.931998830873105"><ele>697.0</ele><time>2026-03-27T16:06:29Z</time></trkpt><trkpt lat="45.50163105038076" lon="7.932107289657484"><ele>697.0</ele><time>2026-03-27T16:06:30Z</time></trkpt><trkpt lat="45.50154445950037" lon="7.932210819292909"><ele>697.0</ele><time>2026-03-27T16:06:31Z</time></trkpt><trkpt lat="45.501474279074536" lon="7.93233024368521"><ele>697.0</ele><time>2026-03-27T16:06:32Z</time></trkpt><trkpt lat="45.501411150905206" lon="7.932466023578311"><ele>697.5</ele><time>2026-03-27T16:06:33Z</time></trkpt><trkpt lat="45.50134505493953" lon="7.932627578984163"><ele>698.0</ele><time>2026-03-27T16:06:34Z</time></trkpt><trkpt lat="45.501288824574644" lon="7.9327863098689235"><ele>698.5</ele><time>2026-03-27T16:06:35Z</time></trkpt><trkpt lat="45.501220658177516" lon="7.932923780061463"><ele>699.0</ele><time>2026-03-27T16:06:36Z</time></trkpt><trkpt lat="45.50115804205905" lon="7.933052763393521"><ele>699.0</ele><time>2026-03-27T16:06:37Z</time></trkpt><trkpt lat="45.50108770937626" lon="7.933207137596012"><ele>699.0</ele><time>2026-03-27T16:06:38Z</time></trkpt><trkpt lat="45.5010166556939" lon="7.933369234541406"><ele>699.0</ele><time>2026-03-27T16:06:39Z</time></trkpt><trkpt lat="45.50092026523678" lon="7.933509721492445"><ele>699.0</ele><time>2026-03-27T16:06:40Z</time></trkpt><trkpt lat="45.50083105655464" lon="7.933657111239059"><ele>698.25</ele><time>2026-03-27T16:06:41Z</time></trkpt><trkpt lat="45.50075358248766" lon="7.933828468825375"><ele>697.5</ele><time>2026-03-27T16:06:42Z</time></trkpt><trkpt lat="45.50066920770398" lon="7.933999340750177"><ele>696.75</ele><time>2026-03-27T16:06:43Z</time></trkpt><trkpt lat="45.50058668607657" lon="7.934126133727174"><ele>696.0</ele><time>2026-03-27T16:06:44Z</time></trkpt><trkpt lat="45.50051728623421" lon="7.934262601697991"><ele>696.4</ele><time>2026-03-27T16:06:45Z</time></trkpt><trkpt lat="45.500437389789056" lon="7.934379947810334"><ele>696.8</ele><time>2026-03-27T16:06:46Z</time></trkpt><trkpt lat="45.500363188408265" lon="7.934490487568204"><ele>697.1999999999999</ele><time>2026-03-27T16:06:47Z</time></trkpt><trkpt lat="45.500305444124315" lon="7.9346085658261325"><ele>697.5999999999999</ele><time>2026-03-27T16:06:48Z</time></trkpt><trkpt lat="45.500249165023384" lon="7.934707624098648"><ele>698.0</ele><time>2026-03-27T16:06:49Z</time></trkpt><trkpt lat="45.50017877173094" lon="7.934829640596522"><ele>698.0</ele><time>2026-03-27T16:06:50Z</time></trkpt><trkpt lat="45.50010869765092" lon="7.934950385370385"><ele>698.0</ele><time>2026-03-27T16:06:51Z</time></trkpt><trkpt lat="45.50005175924422" lon="7.935076566824391"><ele>698.0</ele><time>2026-03-27T16:06:52Z</time></trkpt><trkpt lat="45.500000277813236" lon="7.935202103654974"><ele>698.0</ele><time>2026-03-27T16:06:53Z</time></trkpt><trkpt lat="45.499955695233744" lon="7.935309692778639"><ele>698.0</ele><time>2026-03-27T16:06:54Z</time></trkpt><trkpt lat="45.49991401617385" lon="7.935400389389359"><ele>696.8</ele><time>2026-03-27T16:06:55Z</time></trkpt><trkpt lat="45.4998635381955" lon="7.935478360123669"><ele>695.5999999999999</ele><time>2026-03-27T16:06:56Z</time></trkpt><trkpt lat="45.49984106043047" lon="7.935563541634241"><ele>694.4000000000001</ele><time>2026-03-27T16:06:57Z</time></trkpt><trkpt lat="45.49978484413769" lon="7.935677916803502"><ele>693.2</ele><time>2026-03-27T16:06:58Z</time></trkpt><trkpt lat="45.499751737575544" lon="7.935825818604779"><ele>692.0</ele><time>2026-03-27T16:06:59Z</time></trkpt><trkpt lat="45.49974749285334" lon="7.935981320908365"><ele>692.5</ele><time>2026-03-27T16:07:00Z</time></trkpt><trkpt lat="45.499717633069366" lon="7.936107608659369"><ele>693.0</ele><time>2026-03-27T16:07:01Z</time></trkpt><trkpt lat="45.499658790933246" lon="7.936249878731741"><ele>693.5</ele><time>2026-03-27T16:07:02Z</time></trkpt><trkpt lat="45.49957920889076" lon="7.9364202754183"><ele>694.0</ele><time>2026-03-27T16:07:03Z</time></trkpt><trkpt lat="45.499479144958805" lon="7.9365939488229955"><ele>692.25</ele><time>2026-03-27T16:07:04Z</time></trkpt><trkpt lat="45.499394697692104" lon="7.936730519616849"><ele>690.5</ele><time>2026-03-27T16:07:05Z</time></trkpt><trkpt lat="45.49931088640045" lon="7.936867554582329"><ele>688.75</ele><time>2026-03-27T16:07:06Z</time></trkpt><trkpt lat="45.499231194374495" lon="7.936995840575173"><ele>687.0</ele><time>2026-03-27T16:07:07Z</time></trkpt><trkpt lat="45.499158120378496" lon="7.937117686141869"><ele>687.0</ele><time>2026-03-27T16:07:08Z</time></trkpt><trkpt lat="45.499082495436745" lon="7.937248612681558"><ele>687.0</ele><time>2026-03-27T16:07:09Z</time></trkpt><trkpt lat="45.49900785535953" lon="7.937372154443657"><ele>687.0</ele><time>2026-03-27T16:07:10Z</time></trkpt><trkpt lat="45.49892195125526" lon="7.9374926686534995"><ele>687.0</ele><time>2026-03-27T16:07:11Z</time></trkpt><trkpt lat="45.49883539396285" lon="7.937610154633036"><ele>688.0</ele><time>2026-03-27T16:07:12Z</time></trkpt><trkpt lat="45.498769461217" lon="7.937741935277804"><ele>689.0</ele><time>2026-03-27T16:07:13Z</time></trkpt><trkpt lat="45.498713516590925" lon="7.937882183673695"><ele>690.0</ele><time>2026-03-27T16:07:14Z</time></trkpt><trkpt lat="45.49865889367498" lon="7.938025065686359"><ele>691.0</ele><time>2026-03-27T16:07:15Z</time></trkpt><trkpt lat="45.49858488980147" lon="7.938139354242126"><ele>691.0</ele><time>2026-03-27T16:07:16Z</time></trkpt><trkpt lat="45.49850657470033" lon="7.938267578886625"><ele>691.0</ele><time>2026-03-27T16:07:17Z</time></trkpt><trkpt lat="45.49842959472563" lon="7.938400043350544"><ele>691.0</ele><time>2026-03-27T16:07:18Z</time></trkpt><trkpt lat="45.49836319773462" lon="7.938506693488322"><ele>691.0</ele><time>2026-03-27T16:07:19Z</time></trkpt><trkpt lat="45.498289972499144" lon="7.938606651698861"><ele>691.0</ele><time>2026-03-27T16:07:20Z</time></trkpt><trkpt lat="45.49821880922913" lon="7.938722355263232"><ele>690.1999999999999</ele><time>2026-03-27T16:07:21Z</time></trkpt><trkpt lat="45.49814792699303" lon="7.9388480550531115"><ele>689.4</ele><time>2026-03-27T16:07:22Z</time></trkpt><trkpt lat="45.49807465519008" lon="7.938976042778226"><ele>688.6</ele><time>2026-03-27T16:07:23Z</time></trkpt><trkpt lat="45.49801943610459" lon="7.939110260235876"><ele>687.8</ele><time>2026-03-27T16:07:24Z</time></trkpt><trkpt lat="45.497966693062395" lon="7.9392317994230694"><ele>687.0</ele><time>2026-03-27T16:07:25Z</time></trkpt><trkpt lat="45.49791064587917" lon="7.939332730852287"><ele>687.0</ele><time>2026-03-27T16:07:26Z</time></trkpt><trkpt lat="45.49784782714556" lon="7.939443089925303"><ele>687.0</ele><time>2026-03-27T16:07:27Z</time></trkpt><trkpt lat="45.497768779929345" lon="7.93955761989356"><ele>687.0</ele><time>2026-03-27T16:07:28Z</time></trkpt><trkpt lat="45.497687054786496" lon="7.93965851895269"><ele>687.0</ele><time>2026-03-27T16:07:29Z</time></trkpt><trkpt lat="45.49763505752411" lon="7.939731382588291"><ele>687.0</ele><time>2026-03-27T16:07:30Z</time></trkpt><trkpt lat="45.49757903620542" lon="7.9398316853298425"><ele>687.0</ele><time>2026-03-27T16:07:31Z</time></trkpt><trkpt lat="45.49752814154147" lon="7.939965208549496"><ele>687.0</ele><time>2026-03-27T16:07:32Z</time></trkpt><trkpt lat="45.497481889935735" lon="7.94009659287506"><ele>687.0</ele><time>2026-03-27T16:07:33Z</time></trkpt><trkpt lat="45.49744098591425" lon="7.9402045073568885"><ele>687.0</ele><time>2026-03-27T16:07:34Z</time></trkpt><trkpt lat="45.49738180288187" lon="7.940300041282228"><ele>687.0</ele><time>2026-03-27T16:07:35Z</time></trkpt><trkpt lat="45.49730745010538" lon="7.940412778586003"><ele>685.5</ele><time>2026-03-27T16:07:36Z</time></trkpt><trkpt lat="45.497213965135465" lon="7.9405604491101505"><ele>684.0</ele><time>2026-03-27T16:07:37Z</time></trkpt><trkpt lat="45.49712143219135" lon="7.940729930473307"><ele>682.5</ele><time>2026-03-27T16:07:38Z</time></trkpt><trkpt lat="45.49705001899035" lon="7.940909327860556"><ele>681.0</ele><time>2026-03-27T16:07:39Z</time></trkpt><trkpt lat="45.49696855814454" lon="7.941070682010465"><ele>681.0</ele><time>2026-03-27T16:07:40Z</time></trkpt><trkpt lat="45.49689728878936" lon="7.94122992296697"><ele>681.0</ele><time>2026-03-27T16:07:41Z</time></trkpt><trkpt lat="45.49682136690026" lon="7.941364673050436"><ele>681.0</ele><time>2026-03-27T16:07:42Z</time></trkpt><trkpt lat="45.49674394230359" lon="7.941502103543544"><ele>681.0</ele><time>2026-03-27T16:07:43Z</time></trkpt><trkpt lat="45.49665218088142" lon="7.941632653669846"><ele>678.5999999999999</ele><time>2026-03-27T16:07:44Z</time></trkpt><trkpt lat="45.49657441525288" lon="7.941763369067987"><ele>676.2</ele><time>2026-03-27T16:07:45Z</time></trkpt><trkpt lat="45.496497542737856" lon="7.941882229807141"><ele>673.8</ele><time>2026-03-27T16:07:46Z</time></trkpt><trkpt lat="45.49642631574783" lon="7.941992313398871"><ele>671.4000000000001</ele><time>2026-03-27T16:07:47Z</time></trkpt><trkpt lat="45.49635953267069" lon="7.942112625457599"><ele>669.0</ele><time>2026-03-27T16:07:48Z</time></trkpt><trkpt lat="45.496293483235135" lon="7.9422574155518495"><ele>671.0</ele><time>2026-03-27T16:07:49Z</time></trkpt><trkpt lat="45.496223482167125" lon="7.942421313346199"><ele>673.0</ele><time>2026-03-27T16:07:50Z</time></trkpt><trkpt lat="45.49614971851477" lon="7.942564148780152"><ele>675.0</ele><time>2026-03-27T16:07:51Z</time></trkpt><trkpt lat="45.496083588515155" lon="7.942710272998585"><ele>677.0</ele><time>2026-03-27T16:07:52Z</time></trkpt><trkpt lat="45.49600976710811" lon="7.942850435127322"><ele>677.0</ele><time>2026-03-27T16:07:53Z</time></trkpt><trkpt lat="45.49592372564616" lon="7.943003692656662"><ele>677.0</ele><time>2026-03-27T16:07:54Z</time></trkpt><trkpt lat="45.49583603385395" lon="7.94314463824947"><ele>677.0</ele><time>2026-03-27T16:07:55Z</time></trkpt><trkpt lat="45.49576628253615" lon="7.943250650795311"><ele>677.0</ele><time>2026-03-27T16:07:56Z</time></trkpt><trkpt lat="45.49569882934673" lon="7.943325735069946"><ele>677.0</ele><time>2026-03-27T16:07:57Z</time></trkpt><trkpt lat="45.49561792673379" lon="7.94337021712958"><ele>677.0</ele><time>2026-03-27T16:07:58Z</time></trkpt><trkpt lat="45.495546671827015" lon="7.943408304634551"><ele>677.0</ele><time>2026-03-27T16:07:59Z</time></trkpt><trkpt lat="45.49547652668855" lon="7.943458885200284"><ele>677.0</ele><time>2026-03-27T16:08:00Z</time></trkpt><trkpt lat="45.495438258434824" lon="7.943535823243486"><ele>677.0</ele><time>2026-03-27T16:08:01Z</time></trkpt><trkpt lat="45.495426021421515" lon="7.943650746421885"><ele>677.0</ele><time>2026-03-27T16:08:02Z</time></trkpt><trkpt lat="45.495427208465" lon="7.943766943369412"><ele>676.25</ele><time>2026-03-27T16:08:03Z</time></trkpt><trkpt lat="45.49539874285739" lon="7.943868167479959"><ele>675.5</ele><time>2026-03-27T16:08:04Z</time></trkpt><trkpt lat="45.49531955791947" lon="7.943997324739826"><ele>674.75</ele><time>2026-03-27T16:08:05Z</time></trkpt><trkpt lat="45.49523352433212" lon="7.9441266658558325"><ele>674.0</ele><time>2026-03-27T16:08:06Z</time></trkpt><trkpt lat="45.49514658610878" lon="7.944288971835359"><ele>674.0</ele><time>2026-03-27T16:08:07Z</time></trkpt><trkpt lat="45.4950720142951" lon="7.944434812939582"><ele>674.0</ele><time>2026-03-27T16:08:08Z</time></trkpt><trkpt lat="45.494996157668105" lon="7.9445729761097095"><ele>674.0</ele><time>2026-03-27T16:08:09Z</time></trkpt><trkpt lat="45.494937274137335" lon="7.944695602459868"><ele>674.0</ele><time>2026-03-27T16:08:10Z</time></trkpt><trkpt lat="45.49486185130962" lon="7.944808632018693"><ele>674.0</ele><time>2026-03-27T16:08:11Z</time></trkpt><trkpt lat="45.49479051554632" lon="7.944942325105255"><ele>674.0</ele><time>2026-03-27T16:08:12Z</time></trkpt><trkpt lat="45.49472298891193" lon="7.945069747503733"><ele>674.0</ele><time>2026-03-27T16:08:13Z</time></trkpt><trkpt lat="45.49465759690126" lon="7.945209822619957"><ele>674.0</ele><time>2026-03-27T16:08:14Z</time></trkpt><trkpt lat="45.49459078493737" lon="7.945356959400867"><ele>674.0</ele><time>2026-03-27T16:08:15Z</time></trkpt><trkpt lat="45.49450847168515" lon="7.945505297029169"><ele>674.0</ele><time>2026-03-27T16:08:16Z</time></trkpt><trkpt lat="45.49443534562343" lon="7.945644626875276"><ele>674.0</ele><time>2026-03-27T16:08:17Z</time></trkpt><trkpt lat="45.494349345012786" lon="7.9457693215140734"><ele>674.0</ele><time>2026-03-27T16:08:18Z</time></trkpt><trkpt lat="45.49426598118079" lon="7.945879141263431"><ele>672.4000000000001</ele><time>2026-03-27T16:08:19Z</time></trkpt><trkpt lat="45.494203880226884" lon="7.945965920293489"><ele>670.8</ele><time>2026-03-27T16:08:20Z</time></trkpt><trkpt lat="45.494146885126895" lon="7.946050971970084"><ele>669.2</ele><time>2026-03-27T16:08:21Z</time></trkpt><trkpt lat="45.4940970224249" lon="7.946158058534224"><ele>667.5999999999999</ele><time>2026-03-27T16:08:22Z</time></trkpt><trkpt lat="45.4940516742337" lon="7.946298818288478"><ele>666.0</ele><time>2026-03-27T16:08:23Z</time></trkpt><trkpt lat="45.49399873559023" lon="7.946419631003502"><ele>666.0</ele><time>2026-03-27T16:08:24Z</time></trkpt><trkpt lat="45.49392368704866" lon="7.9464910516244025"><ele>666.0</ele><time>2026-03-27T16:08:25Z</time></trkpt><trkpt lat="45.49384024029424" lon="7.946556267279669"><ele>666.0</ele><time>2026-03-27T16:08:26Z</time></trkpt><trkpt lat="45.49374900113584" lon="7.946608433906617"><ele>666.0</ele><time>2026-03-27T16:08:27Z</time></trkpt><trkpt lat="45.493643079796435" lon="7.946658396139011"><ele>666.0</ele><time>2026-03-27T16:08:28Z</time></trkpt><trkpt lat="45.49357395665206" lon="7.946705839837417"><ele>666.5999999999999</ele><time>2026-03-27T16:08:29Z</time></trkpt><trkpt lat="45.493506595045936" lon="7.94675326502962"><ele>667.2</ele><time>2026-03-27T16:08:30Z</time></trkpt><trkpt lat="45.49344169423829" lon="7.946818814175418"><ele>667.8</ele><time>2026-03-27T16:08:31Z</time></trkpt><trkpt lat="45.49339039588609" lon="7.946928958652675"><ele>668.4000000000001</ele><time>2026-03-27T16:08:32Z</time></trkpt><trkpt lat="45.49336665227126" lon="7.947099738163033"><ele>669.0</ele><time>2026-03-27T16:08:33Z</time></trkpt><trkpt lat="45.4933308511565" lon="7.947309455667879"><ele>669.0</ele><time>2026-03-27T16:08:34Z</time></trkpt><trkpt lat="45.49327521865694" lon="7.947488060217099"><ele>669.0</ele><time>2026-03-27T16:08:35Z</time></trkpt><trkpt lat="45.49322977719417" lon="7.947612510222142"><ele>669.0</ele><time>2026-03-27T16:08:36Z</time></trkpt><trkpt lat="45.49316342252717" lon="7.947743508937404"><ele>669.0</ele><time>2026-03-27T16:08:37Z</time></trkpt><trkpt lat="45.49307644730837" lon="7.947861236788425"><ele>669.25</ele><time>2026-03-27T16:08:38Z</time></trkpt><trkpt lat="45.49299910485548" lon="7.948006603259943"><ele>669.5</ele><time>2026-03-27T16:08:39Z</time></trkpt><trkpt lat="45.492913705739724" lon="7.9481313630392965"><ele>669.75</ele><time>2026-03-27T16:08:40Z</time></trkpt><trkpt lat="45.49282069652052" lon="7.948264468358191"><ele>670.0</ele><time>2026-03-27T16:08:41Z</time></trkpt><trkpt lat="45.49274265233115" lon="7.948385025807564"><ele>668.5</ele><time>2026-03-27T16:08:42Z</time></trkpt><trkpt lat="45.49268190181605" lon="7.948499128143599"><ele>667.0</ele><time>2026-03-27T16:08:43Z</time></trkpt><trkpt lat="45.4925996487462" lon="7.948608399613521"><ele>665.5</ele><time>2026-03-27T16:08:44Z</time></trkpt><trkpt lat="45.49249640771834" lon="7.948715751059349"><ele>664.0</ele><time>2026-03-27T16:08:45Z</time></trkpt><trkpt lat="45.492386418769996" lon="7.948818110923244"><ele>664.0</ele><time>2026-03-27T16:08:46Z</time></trkpt><trkpt lat="45.492298190058015" lon="7.948923724233113"><ele>664.0</ele><time>2026-03-27T16:08:47Z</time></trkpt><trkpt lat="45.492234026555394" lon="7.949029034964512"><ele>664.0</ele><time>2026-03-27T16:08:48Z</time></trkpt><trkpt lat="45.49219179783716" lon="7.949111013856813"><ele>664.0</ele><time>2026-03-27T16:08:49Z</time></trkpt><trkpt lat="45.49214068919155" lon="7.949203249492229"><ele>664.0</ele><time>2026-03-27T16:08:50Z</time></trkpt><trkpt lat="45.492092413882716" lon="7.949297977511538"><ele>664.0</ele><time>2026-03-27T16:08:51Z</time></trkpt><trkpt lat="45.492073186833636" lon="7.949408091547782"><ele>664.5</ele><time>2026-03-27T16:08:52Z</time></trkpt><trkpt lat="45.492021606855474" lon="7.949506268944646"><ele>665.0</ele><time>2026-03-27T16:08:53Z</time></trkpt><trkpt lat="45.49195335084284" lon="7.949620428894164"><ele>665.5</ele><time>2026-03-27T16:08:54Z</time></trkpt><trkpt lat="45.49183200652944" lon="7.9497573141126665"><ele>666.0</ele><time>2026-03-27T16:08:55Z</time></trkpt><trkpt lat="45.491717849526715" lon="7.94988585402856"><ele>666.0</ele><time>2026-03-27T16:08:56Z</time></trkpt><trkpt lat="45.49160755760394" lon="7.949998547677236"><ele>666.0</ele><time>2026-03-27T16:08:57Z</time></trkpt><trkpt lat="45.49149225558342" lon="7.950144819595043"><ele>666.0</ele><time>2026-03-27T16:08:58Z</time></trkpt><trkpt lat="45.49138708125997" lon="7.950289715591645"><ele>666.0</ele><time>2026-03-27T16:08:59Z</time></trkpt><trkpt lat="45.491274530936295" lon="7.95046022551996"><ele>664.75</ele><time>2026-03-27T16:09:00Z</time></trkpt><trkpt lat="45.491169790117034" lon="7.950624236938938"><ele>663.5</ele><time>2026-03-27T16:09:01Z</time></trkpt><trkpt lat="45.49106560404942" lon="7.950772104477055"><ele>662.25</ele><time>2026-03-27T16:09:02Z</time></trkpt><trkpt lat="45.49098312379049" lon="7.950914927487515"><ele>661.0</ele><time>2026-03-27T16:09:03Z</time></trkpt><trkpt lat="45.49090584321418" lon="7.95106444866658"><ele>661.0</ele><time>2026-03-27T16:09:04Z</time></trkpt><trkpt lat="45.4908253159908" lon="7.951212316746874"><ele>661.0</ele><time>2026-03-27T16:09:05Z</time></trkpt><trkpt lat="45.490728384415206" lon="7.951348885083866"><ele>661.0</ele><time>2026-03-27T16:09:06Z</time></trkpt><trkpt lat="45.49063727399234" lon="7.9514730577141695"><ele>661.0</ele><time>2026-03-27T16:09:07Z</time></trkpt><trkpt lat="45.49056333000506" lon="7.951598054252561"><ele>660.75</ele><time>2026-03-27T16:09:08Z</time></trkpt><trkpt lat="45.49049919351812" lon="7.951724036039487"><ele>660.5</ele><time>2026-03-27T16:09:09Z</time></trkpt><trkpt lat="45.490403523900895" lon="7.951847661166448"><ele>660.25</ele><time>2026-03-27T16:09:10Z</time></trkpt><trkpt lat="45.49031509645261" lon="7.951978811144915"><ele>660.0</ele><time>2026-03-27T16:09:11Z</time></trkpt><trkpt lat="45.490252404853045" lon="7.952065981443614"><ele>660.0</ele><time>2026-03-27T16:09:12Z</time></trkpt><trkpt lat="45.490188649716885" lon="7.952153288599201"><ele>660.0</ele><time>2026-03-27T16:09:13Z</time></trkpt><trkpt lat="45.49012218025049" lon="7.952239290922448"><ele>660.0</ele><time>2026-03-27T16:09:14Z</time></trkpt><trkpt lat="45.49005899973008" lon="7.952335537021752"><ele>660.0</ele><time>2026-03-27T16:09:15Z</time></trkpt><trkpt lat="45.48999706640226" lon="7.952442142221498"><ele>660.0</ele><time>2026-03-27T16:09:16Z</time></trkpt><trkpt lat="45.489940167787914" lon="7.952572579459022"><ele>659.2</ele><time>2026-03-27T16:09:17Z</time></trkpt><trkpt lat="45.489875314206046" lon="7.952699204621599"><ele>658.4</ele><time>2026-03-27T16:09:18Z</time></trkpt><trkpt lat="45.4898138139543" lon="7.952825838483387"><ele>657.5999999999999</ele><time>2026-03-27T16:09:19Z</time></trkpt><trkpt lat="45.489761368929976" lon="7.952942632404444"><ele>656.8</ele><time>2026-03-27T16:09:20Z</time></trkpt><trkpt lat="45.48971528860366" lon="7.953053016109167"><ele>656.0</ele><time>2026-03-27T16:09:21Z</time></trkpt><trkpt lat="45.48966812007884" lon="7.953153784201563"><ele>656.0</ele><time>2026-03-27T16:09:22Z</time></trkpt><trkpt lat="45.48960258886818" lon="7.953248748987858"><ele>656.0</ele><time>2026-03-27T16:09:23Z</time></trkpt><trkpt lat="45.489534037833955" lon="7.95332044011464"><ele>656.0</ele><time>2026-03-27T16:09:24Z</time></trkpt><trkpt lat="45.489476996650126" lon="7.953395292570462"><ele>656.0</ele><time>2026-03-27T16:09:25Z</time></trkpt><trkpt lat="45.48943878388795" lon="7.95348073063363"><ele>656.0</ele><time>2026-03-27T16:09:26Z</time></trkpt><trkpt lat="45.48942354290569" lon="7.9536059197702125"><ele>656.0</ele><time>2026-03-27T16:09:27Z</time></trkpt><trkpt lat="45.48942482629886" lon="7.953718466146811"><ele>656.0</ele><time>2026-03-27T16:09:28Z</time></trkpt><trkpt lat="45.489416080333086" lon="7.953810609269283"><ele>656.0</ele><time>2026-03-27T16:09:29Z</time></trkpt><trkpt lat="45.48937848769049" lon="7.953952611071638"><ele>656.0</ele><time>2026-03-27T16:09:31Z</time></trkpt><trkpt lat="45.48932262290839" lon="7.95407716140932"><ele>656.0</ele><time>2026-03-27T16:09:33Z</time></trkpt><trkpt lat="45.48927719560066" lon="7.954176331749566"><ele>656.0</ele><time>2026-03-27T16:09:34Z</time></trkpt><trkpt lat="45.4892089702415" lon="7.954277651412769"><ele>654.8</ele><time>2026-03-27T16:09:35Z</time></trkpt><trkpt lat="45.489120586765566" lon="7.954368033686255"><ele>653.5999999999999</ele><time>2026-03-27T16:09:36Z</time></trkpt><trkpt lat="45.489033430105586" lon="7.954464434482893"><ele>652.4</ele><time>2026-03-27T16:09:37Z</time></trkpt><trkpt lat="45.48895002358259" lon="7.95457120572908"><ele>651.2</ele><time>2026-03-27T16:09:38Z</time></trkpt><trkpt lat="45.488883104310005" lon="7.954681646883473"><ele>650.0</ele><time>2026-03-27T16:09:39Z</time></trkpt><trkpt lat="45.488816132862446" lon="7.954808954273382"><ele>650.0</ele><time>2026-03-27T16:09:40Z</time></trkpt><trkpt lat="45.48875601893468" lon="7.954929029104425"><ele>650.0</ele><time>2026-03-27T16:09:41Z</time></trkpt><trkpt lat="45.48869435088613" lon="7.955038406485437"><ele>650.0</ele><time>2026-03-27T16:09:42Z</time></trkpt><trkpt lat="45.48863015080176" lon="7.955171310569745"><ele>650.0</ele><time>2026-03-27T16:09:43Z</time></trkpt><trkpt lat="45.48857527133453" lon="7.955285123998963"><ele>650.0</ele><time>2026-03-27T16:09:44Z</time></trkpt><trkpt lat="45.488530216224035" lon="7.955382867684662"><ele>651.0</ele><time>2026-03-27T16:09:45Z</time></trkpt><trkpt lat="45.48846796977621" lon="7.9554673098528195"><ele>652.0</ele><time>2026-03-27T16:09:46Z</time></trkpt><trkpt lat="45.48837913408713" lon="7.95556578167319"><ele>653.0</ele><time>2026-03-27T16:09:47Z</time></trkpt><trkpt lat="45.488268575812526" lon="7.955666909709717"><ele>654.0</ele><time>2026-03-27T16:09:48Z</time></trkpt><trkpt lat="45.4881543795502" lon="7.955770265063139"><ele>654.0</ele><time>2026-03-27T16:09:49Z</time></trkpt><trkpt lat="45.488055643084415" lon="7.955856578567187"><ele>654.0</ele><time>2026-03-27T16:09:50Z</time></trkpt><trkpt lat="45.48796838964963" lon="7.955936785325351"><ele>654.0</ele><time>2026-03-27T16:09:51Z</time></trkpt><trkpt lat="45.48791194286608" lon="7.956013432559428"><ele>654.0</ele><time>2026-03-27T16:09:52Z</time></trkpt><trkpt lat="45.48784633737752" lon="7.9560766367009315"><ele>654.0</ele><time>2026-03-27T16:09:53Z</time></trkpt><trkpt lat="45.487781754207724" lon="7.956132045556692"><ele>653.2</ele><time>2026-03-27T16:09:54Z</time></trkpt><trkpt lat="45.487718972348674" lon="7.956200182492848"><ele>652.4000000000001</ele><time>2026-03-27T16:09:55Z</time></trkpt><trkpt lat="45.487660308454736" lon="7.956286636227395"><ele>651.6</ele><time>2026-03-27T16:09:56Z</time></trkpt><trkpt lat="45.48760424308003" lon="7.95640741959379"><ele>650.8</ele><time>2026-03-27T16:09:57Z</time></trkpt><trkpt lat="45.487560636181" lon="7.956572607264525"><ele>650.0</ele><time>2026-03-27T16:09:58Z</time></trkpt><trkpt lat="45.48752590076598" lon="7.956728894521668"><ele>648.8</ele><time>2026-03-27T16:09:59Z</time></trkpt><trkpt lat="45.48749746841024" lon="7.956873068369735"><ele>647.6</ele><time>2026-03-27T16:10:00Z</time></trkpt><trkpt lat="45.48746146221154" lon="7.957000169107907"><ele>646.4000000000001</ele><time>2026-03-27T16:10:01Z</time></trkpt><trkpt lat="45.48741319636192" lon="7.957122241504116"><ele>645.2</ele><time>2026-03-27T16:10:02Z</time></trkpt><trkpt lat="45.48735833970729" lon="7.957231477167019"><ele>644.0</ele><time>2026-03-27T16:10:03Z</time></trkpt><trkpt lat="45.48730043852797" lon="7.957328707638466"><ele>644.0</ele><time>2026-03-27T16:10:04Z</time></trkpt><trkpt lat="45.48723774491953" lon="7.957420600562573"><ele>644.0</ele><time>2026-03-27T16:10:05Z</time></trkpt><trkpt lat="45.487163058589736" lon="7.957517839968077"><ele>644.0</ele><time>2026-03-27T16:10:06Z</time></trkpt><trkpt lat="45.48708800141555" lon="7.957625562037831"><ele>644.0</ele><time>2026-03-27T16:10:07Z</time></trkpt><trkpt lat="45.48702250999543" lon="7.957741898182917"><ele>644.0</ele><time>2026-03-27T16:10:08Z</time></trkpt><trkpt lat="45.48697346980217" lon="7.957867868077226"><ele>644.0</ele><time>2026-03-27T16:10:09Z</time></trkpt><trkpt lat="45.48693758785263" lon="7.957982817414802"><ele>644.0</ele><time>2026-03-27T16:10:10Z</time></trkpt><trkpt lat="45.48690347538114" lon="7.958074393425997"><ele>644.0</ele><time>2026-03-27T16:10:11Z</time></trkpt><trkpt lat="45.48686036904658" lon="7.9581399334956355"><ele>644.0</ele><time>2026-03-27T16:10:12Z</time></trkpt><trkpt lat="45.486791145063776" lon="7.958220185807839"><ele>644.0</ele><time>2026-03-27T16:10:13Z</time></trkpt><trkpt lat="45.48669854118808" lon="7.958330049252903"><ele>644.0</ele><time>2026-03-27T16:10:14Z</time></trkpt><trkpt lat="45.48661606993955" lon="7.958444899869333"><ele>644.0</ele><time>2026-03-27T16:10:15Z</time></trkpt><trkpt lat="45.48653413067087" lon="7.958559038905038"><ele>644.0</ele><time>2026-03-27T16:10:16Z</time></trkpt><trkpt lat="45.48647094802351" lon="7.9586729861911545"><ele>644.0</ele><time>2026-03-27T16:10:17Z</time></trkpt><trkpt lat="45.486414548795665" lon="7.958828407891265"><ele>644.0</ele><time>2026-03-27T16:10:18Z</time></trkpt><trkpt lat="45.48634237529951" lon="7.95898334639189"><ele>644.0</ele><time>2026-03-27T16:10:19Z</time></trkpt><trkpt lat="45.48626493342655" lon="7.959109652247643"><ele>644.0</ele><time>2026-03-27T16:10:20Z</time></trkpt><trkpt lat="45.486196147592906" lon="7.959222695317705"><ele>644.0</ele><time>2026-03-27T16:10:21Z</time></trkpt><trkpt lat="45.48612470329135" lon="7.959336465264846"><ele>644.0</ele><time>2026-03-27T16:10:22Z</time></trkpt><trkpt lat="45.48604967827609" lon="7.959443159024544"><ele>644.0</ele><time>2026-03-27T16:10:23Z</time></trkpt><trkpt lat="45.48596742831135" lon="7.959541473003192"><ele>644.6</ele><time>2026-03-27T16:10:24Z</time></trkpt><trkpt lat="45.48588334294402" lon="7.959635542996742"><ele>645.2</ele><time>2026-03-27T16:10:25Z</time></trkpt><trkpt lat="45.48579889965762" lon="7.9597309637246045"><ele>645.8000000000001</ele><time>2026-03-27T16:10:26Z</time></trkpt><trkpt lat="45.485709070684415" lon="7.95983070572422"><ele>646.4000000000001</ele><time>2026-03-27T16:10:27Z</time></trkpt><trkpt lat="45.48562045838724" lon="7.959927079597818"><ele>647.0</ele><time>2026-03-27T16:10:28Z</time></trkpt><trkpt lat="45.48553515950257" lon="7.960039195908582"><ele>647.2</ele><time>2026-03-27T16:10:29Z</time></trkpt><trkpt lat="45.48545470148592" lon="7.960153326639043"><ele>647.4000000000001</ele><time>2026-03-27T16:10:30Z</time></trkpt><trkpt lat="45.48538482194377" lon="7.960269108596429"><ele>647.5999999999999</ele><time>2026-03-27T16:10:31Z</time></trkpt><trkpt lat="45.485321106506085" lon="7.960382762670339"><ele>647.8</ele><time>2026-03-27T16:10:32Z</time></trkpt><trkpt lat="45.485253168014516" lon="7.960493698624175"><ele>648.0</ele><time>2026-03-27T16:10:33Z</time></trkpt><trkpt lat="45.48517895247243" lon="7.9606007527084115"><ele>648.0</ele><time>2026-03-27T16:10:34Z</time></trkpt><trkpt lat="45.48510113365095" lon="7.960723703019184"><ele>648.0</ele><time>2026-03-27T16:10:35Z</time></trkpt><trkpt lat="45.48501868600814" lon="7.960862898973561"><ele>648.0</ele><time>2026-03-27T16:10:36Z</time></trkpt><trkpt lat="45.484925061385404" lon="7.960990755427704"><ele>648.0</ele><time>2026-03-27T16:10:37Z</time></trkpt><trkpt lat="45.48481545712371" lon="7.961122408353461"><ele>647.25</ele><time>2026-03-27T16:10:38Z</time></trkpt><trkpt lat="45.48470876242808" lon="7.961236380322297"><ele>646.5</ele><time>2026-03-27T16:10:39Z</time></trkpt><trkpt lat="45.484606536772255" lon="7.961355142598728"><ele>645.75</ele><time>2026-03-27T16:10:40Z</time></trkpt><trkpt lat="45.484494024023164" lon="7.961495800303264"><ele>645.0</ele><time>2026-03-27T16:10:41Z</time></trkpt><trkpt lat="45.4843939917939" lon="7.96164026074461"><ele>644.0</ele><time>2026-03-27T16:10:42Z</time></trkpt><trkpt lat="45.4843027133886" lon="7.961761592868551"><ele>643.0</ele><time>2026-03-27T16:10:43Z</time></trkpt><trkpt lat="45.48422490917539" lon="7.96188970285076"><ele>642.0</ele><time>2026-03-27T16:10:44Z</time></trkpt><trkpt lat="45.48415066944351" lon="7.961996604307249"><ele>641.0</ele><time>2026-03-27T16:10:45Z</time></trkpt><trkpt lat="45.48408206639066" lon="7.9621047641436355"><ele>641.0</ele><time>2026-03-27T16:10:46Z</time></trkpt><trkpt lat="45.484013443185596" lon="7.9622012813295475"><ele>641.0</ele><time>2026-03-27T16:10:47Z</time></trkpt><trkpt lat="45.48393453718379" lon="7.962290392827307"><ele>641.0</ele><time>2026-03-27T16:10:48Z</time></trkpt><trkpt lat="45.48383754614792" lon="7.962382625514801"><ele>641.0</ele><time>2026-03-27T16:10:49Z</time></trkpt><trkpt lat="45.48376051505769" lon="7.9624668393856775"><ele>641.0</ele><time>2026-03-27T16:10:50Z</time></trkpt><trkpt lat="45.483673513646856" lon="7.962584686209087"><ele>641.0</ele><time>2026-03-27T16:10:52Z</time></trkpt><trkpt lat="45.483592869581244" lon="7.962688507977452"><ele>641.0</ele><time>2026-03-27T16:10:53Z</time></trkpt><trkpt lat="45.483518847752656" lon="7.962802347202755"><ele>641.0</ele><time>2026-03-27T16:10:54Z</time></trkpt><trkpt lat="45.48344927515833" lon="7.962887664392485"><ele>641.0</ele><time>2026-03-27T16:10:55Z</time></trkpt><trkpt lat="45.48337668703387" lon="7.962994451791531"><ele>641.0</ele><time>2026-03-27T16:10:56Z</time></trkpt><trkpt lat="45.48331285488982" lon="7.963109378530538"><ele>641.0</ele><time>2026-03-27T16:10:57Z</time></trkpt><trkpt lat="45.48325194065904" lon="7.9632121880407665"><ele>641.0</ele><time>2026-03-27T16:10:58Z</time></trkpt><trkpt lat="45.483165807273565" lon="7.963314383287189"><ele>641.0</ele><time>2026-03-27T16:10:59Z</time></trkpt><trkpt lat="45.483088571067256" lon="7.963416657415567"><ele>641.0</ele><time>2026-03-27T16:11:00Z</time></trkpt><trkpt lat="45.483010755524916" lon="7.963519311621493"><ele>641.0</ele><time>2026-03-27T16:11:01Z</time></trkpt><trkpt lat="45.4829447955963" lon="7.963624615109358"><ele>641.0</ele><time>2026-03-27T16:11:02Z</time></trkpt><trkpt lat="45.482868048949605" lon="7.96373057768266"><ele>641.0</ele><time>2026-03-27T16:11:03Z</time></trkpt><trkpt lat="45.48278324364987" lon="7.963841604222876"><ele>641.0</ele><time>2026-03-27T16:11:04Z</time></trkpt><trkpt lat="45.48270929577537" lon="7.9639548911015074"><ele>641.0</ele><time>2026-03-27T16:11:05Z</time></trkpt><trkpt lat="45.48263515045686" lon="7.964066650066546"><ele>641.0</ele><time>2026-03-27T16:11:06Z</time></trkpt><trkpt lat="45.48256772039709" lon="7.964176193742239"><ele>639.0</ele><time>2026-03-27T16:11:07Z</time></trkpt><trkpt lat="45.4825036436453" lon="7.964272559557721"><ele>637.0</ele><time>2026-03-27T16:11:08Z</time></trkpt><trkpt lat="45.482430765650435" lon="7.964365302670312"><ele>635.0</ele><time>2026-03-27T16:11:09Z</time></trkpt><trkpt lat="45.482354874613804" lon="7.964453151444778"><ele>633.0</ele><time>2026-03-27T16:11:10Z</time></trkpt><trkpt lat="45.482277950722974" lon="7.9645652153837245"><ele>631.0</ele><time>2026-03-27T16:11:11Z</time></trkpt><trkpt lat="45.482211641597324" lon="7.964678471073083"><ele>631.0</ele><time>2026-03-27T16:11:12Z</time></trkpt><trkpt lat="45.48214668709834" lon="7.964790377929064"><ele>631.0</ele><time>2026-03-27T16:11:13Z</time></trkpt><trkpt lat="45.482074341228966" lon="7.964896410212581"><ele>631.0</ele><time>2026-03-27T16:11:14Z</time></trkpt><trkpt lat="45.48199993089294" lon="7.965011975272163"><ele>631.0</ele><time>2026-03-27T16:11:15Z</time></trkpt><trkpt lat="45.48192282951044" lon="7.9651375576545975"><ele>631.0</ele><time>2026-03-27T16:11:16Z</time></trkpt><trkpt lat="45.48184719762692" lon="7.965258602639749"><ele>630.8</ele><time>2026-03-27T16:11:17Z</time></trkpt><trkpt lat="45.48177034550834" lon="7.965354228545414"><ele>630.6</ele><time>2026-03-27T16:11:18Z</time></trkpt><trkpt lat="45.481695789063664" lon="7.965443651806402"><ele>630.4</ele><time>2026-03-27T16:11:19Z</time></trkpt><trkpt lat="45.48162021913653" lon="7.9655294903962375"><ele>630.2</ele><time>2026-03-27T16:11:20Z</time></trkpt><trkpt lat="45.48153037593217" lon="7.965600298910959"><ele>630.0</ele><time>2026-03-27T16:11:22Z</time></trkpt><trkpt lat="45.48149295569282" lon="7.965705467736664"><ele>630.0</ele><time>2026-03-27T16:11:23Z</time></trkpt><trkpt lat="45.481459716874994" lon="7.965808622725256"><ele>630.0</ele><time>2026-03-27T16:11:24Z</time></trkpt><trkpt lat="45.48136102210942" lon="7.965939282940661"><ele>630.0</ele><time>2026-03-27T16:11:26Z</time></trkpt><trkpt lat="45.48129146712173" lon="7.965985814403374"><ele>630.0</ele><time>2026-03-27T16:11:27Z</time></trkpt><trkpt lat="45.4811770269686" lon="7.966069213578945"><ele>630.0</ele><time>2026-03-27T16:11:29Z</time></trkpt><trkpt lat="45.48112794871106" lon="7.966130473630015"><ele>630.0</ele><time>2026-03-27T16:11:30Z</time></trkpt><trkpt lat="45.481043137021004" lon="7.966253608320239"><ele>630.0</ele><time>2026-03-27T16:11:32Z</time></trkpt><trkpt lat="45.48096649459824" lon="7.966417620589118"><ele>630.0</ele><time>2026-03-27T16:11:34Z</time></trkpt><trkpt lat="45.48091141691913" lon="7.96654001700976"><ele>630.0</ele><time>2026-03-27T16:11:35Z</time></trkpt><trkpt lat="45.4808425662178" lon="7.9666749410164295"><ele>629.5</ele><time>2026-03-27T16:11:36Z</time></trkpt><trkpt lat="45.48076018648859" lon="7.966827765616864"><ele>629.0</ele><time>2026-03-27T16:11:37Z</time></trkpt><trkpt lat="45.480670107151305" lon="7.966974306973087"><ele>628.5</ele><time>2026-03-27T16:11:38Z</time></trkpt><trkpt lat="45.480564266983116" lon="7.96711748970221"><ele>628.0</ele><time>2026-03-27T16:11:39Z</time></trkpt><trkpt lat="45.48047936827185" lon="7.967245826447984"><ele>627.8</ele><time>2026-03-27T16:11:40Z</time></trkpt><trkpt lat="45.480398673124434" lon="7.967354807460685"><ele>627.5999999999999</ele><time>2026-03-27T16:11:41Z</time></trkpt><trkpt lat="45.4803208062188" lon="7.967460891026612"><ele>627.4000000000001</ele><time>2026-03-27T16:11:42Z</time></trkpt><trkpt lat="45.48024350572464" lon="7.967582604856321"><ele>627.2</ele><time>2026-03-27T16:11:43Z</time></trkpt><trkpt lat="45.48016929426653" lon="7.967707637913687"><ele>627.0</ele><time>2026-03-27T16:11:44Z</time></trkpt><trkpt lat="45.48009818764914" lon="7.9678479791404655"><ele>626.5</ele><time>2026-03-27T16:11:45Z</time></trkpt><trkpt lat="45.4800059761113" lon="7.967970020818729"><ele>626.0</ele><time>2026-03-27T16:11:46Z</time></trkpt><trkpt lat="45.47990904421439" lon="7.968096363006704"><ele>625.5</ele><time>2026-03-27T16:11:47Z</time></trkpt><trkpt lat="45.47981499749004" lon="7.968222596455191"><ele>625.0</ele><time>2026-03-27T16:11:48Z</time></trkpt><trkpt lat="45.479735279609415" lon="7.968344649367257"><ele>624.75</ele><time>2026-03-27T16:11:49Z</time></trkpt><trkpt lat="45.479661184983804" lon="7.968459322358332"><ele>624.5</ele><time>2026-03-27T16:11:50Z</time></trkpt><trkpt lat="45.47958268519724" lon="7.968579286685134"><ele>624.25</ele><time>2026-03-27T16:11:51Z</time></trkpt><trkpt lat="45.47950111566781" lon="7.968699252077098"><ele>624.0</ele><time>2026-03-27T16:11:52Z</time></trkpt><trkpt lat="45.479423319062015" lon="7.968828570176425"><ele>624.0</ele><time>2026-03-27T16:11:53Z</time></trkpt><trkpt lat="45.47934890200428" lon="7.9689565430787255"><ele>624.0</ele><time>2026-03-27T16:11:54Z</time></trkpt><trkpt lat="45.47926916026135" lon="7.969087692058915"><ele>624.0</ele><time>2026-03-27T16:11:55Z</time></trkpt><trkpt lat="45.479171933362316" lon="7.969215554696388"><ele>624.0</ele><time>2026-03-27T16:11:56Z</time></trkpt><trkpt lat="45.47908707847491" lon="7.969345074433927"><ele>623.5</ele><time>2026-03-27T16:11:57Z</time></trkpt><trkpt lat="45.47901678954523" lon="7.9694549311337015"><ele>623.0</ele><time>2026-03-27T16:11:58Z</time></trkpt><trkpt lat="45.47894699005882" lon="7.969556388408511"><ele>622.5</ele><time>2026-03-27T16:11:59Z</time></trkpt><trkpt lat="45.47888872147834" lon="7.969622808184626"><ele>622.0</ele><time>2026-03-27T16:12:00Z</time></trkpt><trkpt lat="45.478848660590074" lon="7.969698453961467"><ele>621.5</ele><time>2026-03-27T16:12:01Z</time></trkpt><trkpt lat="45.47880242506291" lon="7.969777122976732"><ele>621.0</ele><time>2026-03-27T16:12:02Z</time></trkpt><trkpt lat="45.47875928641659" lon="7.969863464393315"><ele>621.0</ele><time>2026-03-27T16:12:03Z</time></trkpt><trkpt lat="45.47868200967369" lon="7.9699579106767295"><ele>621.0</ele><time>2026-03-27T16:12:05Z</time></trkpt><trkpt lat="45.47859577586017" lon="7.969910312903144"><ele>621.0</ele><time>2026-03-27T16:12:08Z</time></trkpt><trkpt lat="45.47854195622148" lon="7.969823416972695"><ele>621.0</ele><time>2026-03-27T16:12:10Z</time></trkpt><trkpt lat="45.478485712002794" lon="7.969744209915432"><ele>621.0</ele><time>2026-03-27T16:12:13Z</time></trkpt><trkpt lat="45.47841061261218" lon="7.96968545729348"><ele>621.0</ele><time>2026-03-27T16:12:16Z</time></trkpt><trkpt lat="45.47834599457937" lon="7.969647332554891"><ele>621.0</ele><time>2026-03-27T16:12:18Z</time></trkpt><trkpt lat="45.47831090614701" lon="7.96955862729827"><ele>621.0</ele><time>2026-03-27T16:12:20Z</time></trkpt><trkpt lat="45.478259125784454" lon="7.969503305360929"><ele>621.0</ele><time>2026-03-27T16:12:22Z</time></trkpt><trkpt lat="45.47821597693989" lon="7.969397506427639"><ele>621.0</ele><time>2026-03-27T16:12:25Z</time></trkpt><trkpt lat="45.4781719927213" lon="7.969323571704135"><ele>621.0</ele><time>2026-03-27T16:12:28Z</time></trkpt><trkpt lat="45.47813383929663" lon="7.969232884488173"><ele>621.0</ele><time>2026-03-27T16:12:31Z</time></trkpt><trkpt lat="45.47802599197494" lon="7.969176862498252"><ele>619.75</ele><time>2026-03-27T16:12:34Z</time></trkpt><trkpt lat="45.47799799465568" lon="7.969066609163304"><ele>618.5</ele><time>2026-03-27T16:12:36Z</time></trkpt><trkpt lat="45.47807934971168" lon="7.968967504376089"><ele>617.25</ele><time>2026-03-27T16:12:38Z</time></trkpt><trkpt lat="45.4780872883219" lon="7.968784276180616"><ele>616.0</ele><time>2026-03-27T16:12:40Z</time></trkpt><trkpt lat="45.478297755159026" lon="7.9682303302496775"><ele>615.0</ele><time>2026-03-27T16:12:42Z</time></trkpt><trkpt lat="45.47831931497277" lon="7.96812990996335"><ele>614.0</ele><time>2026-03-27T16:12:43Z</time></trkpt><trkpt lat="45.478378884773285" lon="7.968092930647602"><ele>613.0</ele><time>2026-03-27T16:12:44Z</time></trkpt><trkpt lat="45.47846092684326" lon="7.967993520612526"><ele>612.0</ele><time>2026-03-27T16:12:45Z</time></trkpt><trkpt lat="45.47858324536508" lon="7.967831765765658"><ele>611.0</ele><time>2026-03-27T16:12:46Z</time></trkpt><trkpt lat="45.47867759638299" lon="7.967619988776584"><ele>613.0</ele><time>2026-03-27T16:12:47Z</time></trkpt><trkpt lat="45.47878974086709" lon="7.967400752079972"><ele>615.0</ele><time>2026-03-27T16:12:48Z</time></trkpt><trkpt lat="45.47889241700214" lon="7.967239289532395"><ele>617.0</ele><time>2026-03-27T16:12:49Z</time></trkpt><trkpt lat="45.47900830676076" lon="7.967103348684578"><ele>617.0</ele><time>2026-03-27T16:12:50Z</time></trkpt><trkpt lat="45.479092075589115" lon="7.966987730840305"><ele>617.0</ele><time>2026-03-27T16:12:51Z</time></trkpt><trkpt lat="45.47914382220014" lon="7.966856666945854"><ele>617.0</ele><time>2026-03-27T16:12:52Z</time></trkpt><trkpt lat="45.47919533733106" lon="7.966703267602656"><ele>617.0</ele><time>2026-03-27T16:12:53Z</time></trkpt><trkpt lat="45.47924451650366" lon="7.966524259234316"><ele>615.3333333333333</ele><time>2026-03-27T16:12:54Z</time></trkpt><trkpt lat="45.47932150047654" lon="7.966315434243875"><ele>613.6666666666666</ele><time>2026-03-27T16:12:55Z</time></trkpt><trkpt lat="45.47941624361116" lon="7.966142231691034"><ele>612.0</ele><time>2026-03-27T16:12:56Z</time></trkpt><trkpt lat="45.479516861895775" lon="7.966002627656071"><ele>612.0</ele><time>2026-03-27T16:12:57Z</time></trkpt><trkpt lat="45.4795638996798" lon="7.965864751053736"><ele>612.0</ele><time>2026-03-27T16:12:58Z</time></trkpt><trkpt lat="45.47968962244233" lon="7.965760798836757"><ele>612.0</ele><time>2026-03-27T16:13:00Z</time></trkpt><trkpt lat="45.47979758368327" lon="7.965679817721643"><ele>612.0</ele><time>2026-03-27T16:13:01Z</time></trkpt><trkpt lat="45.479909916330016" lon="7.965552566770973"><ele>611.75</ele><time>2026-03-27T16:13:02Z</time></trkpt><trkpt lat="45.47999205499846" lon="7.965487398970682"><ele>611.5</ele><time>2026-03-27T16:13:03Z</time></trkpt><trkpt lat="45.48007964404338" lon="7.965372440622347"><ele>611.25</ele><time>2026-03-27T16:13:04Z</time></trkpt><trkpt lat="45.48019131614745" lon="7.965233203661423"><ele>611.0</ele><time>2026-03-27T16:13:05Z</time></trkpt><trkpt lat="45.48028811167078" lon="7.9650810306500635"><ele>610.0</ele><time>2026-03-27T16:13:06Z</time></trkpt><trkpt lat="45.480374064380435" lon="7.964885809553761"><ele>609.0</ele><time>2026-03-27T16:13:07Z</time></trkpt><trkpt lat="45.480475483474095" lon="7.964704864187796"><ele>608.0</ele><time>2026-03-27T16:13:08Z</time></trkpt><trkpt lat="45.48058347152545" lon="7.964555188977825"><ele>608.75</ele><time>2026-03-27T16:13:09Z</time></trkpt><trkpt lat="45.4806962040361" lon="7.964413399656467"><ele>609.5</ele><time>2026-03-27T16:13:10Z</time></trkpt><trkpt lat="45.48076667364155" lon="7.964287396201871"><ele>610.25</ele><time>2026-03-27T16:13:11Z</time></trkpt><trkpt lat="45.480818190500294" lon="7.96414705424199"><ele>611.0</ele><time>2026-03-27T16:13:12Z</time></trkpt><trkpt lat="45.4809093129528" lon="7.964005554487195"><ele>611.0</ele><time>2026-03-27T16:13:13Z</time></trkpt><trkpt lat="45.481033071264996" lon="7.963895025608535"><ele>611.0</ele><time>2026-03-27T16:13:14Z</time></trkpt><trkpt lat="45.481166741541394" lon="7.963791832210609"><ele>611.0</ele><time>2026-03-27T16:13:15Z</time></trkpt><trkpt lat="45.481282139793386" lon="7.96366721398143"><ele>611.0</ele><time>2026-03-27T16:13:16Z</time></trkpt><trkpt lat="45.48137262742733" lon="7.963532569049027"><ele>612.75</ele><time>2026-03-27T16:13:17Z</time></trkpt><trkpt lat="45.4814838042891" lon="7.9633734701520975"><ele>614.5</ele><time>2026-03-27T16:13:18Z</time></trkpt><trkpt lat="45.48158906683494" lon="7.963264884569686"><ele>616.25</ele><time>2026-03-27T16:13:19Z</time></trkpt><trkpt lat="45.48167891417229" lon="7.963159931194974"><ele>618.0</ele><time>2026-03-27T16:13:20Z</time></trkpt><trkpt lat="45.48177746401678" lon="7.9630361991577745"><ele>618.0</ele><time>2026-03-27T16:13:21Z</time></trkpt><trkpt lat="45.4818878637381" lon="7.962925720866869"><ele>618.0</ele><time>2026-03-27T16:13:22Z</time></trkpt><trkpt lat="45.481968391363814" lon="7.962852703773924"><ele>618.0</ele><time>2026-03-27T16:13:23Z</time></trkpt><trkpt lat="45.482036735923536" lon="7.962789693875978"><ele>618.0</ele><time>2026-03-27T16:13:24Z</time></trkpt><trkpt lat="45.48207585838013" lon="7.962703262526322"><ele>618.0</ele><time>2026-03-27T16:13:25Z</time></trkpt><trkpt lat="45.48209982735217" lon="7.962576162543272"><ele>620.25</ele><time>2026-03-27T16:13:26Z</time></trkpt><trkpt lat="45.482196790232905" lon="7.962401664111874"><ele>622.5</ele><time>2026-03-27T16:13:28Z</time></trkpt><trkpt lat="45.48226619949926" lon="7.9623079827006435"><ele>624.75</ele><time>2026-03-27T16:13:29Z</time></trkpt><trkpt lat="45.48230318987112" lon="7.962208486028311"><ele>627.0</ele><time>2026-03-27T16:13:30Z</time></trkpt><trkpt lat="45.482410966752084" lon="7.962130069414315"><ele>627.0</ele><time>2026-03-27T16:13:32Z</time></trkpt><trkpt lat="45.48248533053572" lon="7.962097759608844"><ele>627.0</ele><time>2026-03-27T16:13:33Z</time></trkpt><trkpt lat="45.482587356584666" lon="7.962021286115141"><ele>627.0</ele><time>2026-03-27T16:13:34Z</time></trkpt><trkpt lat="45.48267899585194" lon="7.961916862893794"><ele>627.0</ele><time>2026-03-27T16:13:35Z</time></trkpt><trkpt lat="45.482732069774286" lon="7.961854531112193"><ele>627.0</ele><time>2026-03-27T16:13:36Z</time></trkpt><trkpt lat="45.48271277094955" lon="7.961694626335212"><ele>625.5</ele><time>2026-03-27T16:13:39Z</time></trkpt><trkpt lat="45.482696287473686" lon="7.961558211868777"><ele>624.0</ele><time>2026-03-27T16:13:40Z</time></trkpt><trkpt lat="45.48269173323571" lon="7.961434684980272"><ele>622.5</ele><time>2026-03-27T16:13:41Z</time></trkpt><trkpt lat="45.48270078596567" lon="7.961329361319239"><ele>621.0</ele><time>2026-03-27T16:13:42Z</time></trkpt><trkpt lat="45.48270790383848" lon="7.96119379456516"><ele>619.5</ele><time>2026-03-27T16:13:43Z</time></trkpt><trkpt lat="45.48272632596972" lon="7.961100390419718"><ele>618.0</ele><time>2026-03-27T16:13:44Z</time></trkpt><trkpt lat="45.48276271916836" lon="7.9609791502300125"><ele>619.0</ele><time>2026-03-27T16:13:46Z</time></trkpt><trkpt lat="45.48281475510898" lon="7.96084199758038"><ele>620.0</ele><time>2026-03-27T16:13:48Z</time></trkpt><trkpt lat="45.482855244726835" lon="7.960763402048744"><ele>621.0</ele><time>2026-03-27T16:13:49Z</time></trkpt><trkpt lat="45.48289760721034" lon="7.960695055094352"><ele>622.0</ele><time>2026-03-27T16:13:50Z</time></trkpt><trkpt lat="45.4829304516823" lon="7.9606169802881475"><ele>623.0</ele><time>2026-03-27T16:13:51Z</time></trkpt><trkpt lat="45.4829590366963" lon="7.960479970392293"><ele>624.0</ele><time>2026-03-27T16:13:53Z</time></trkpt><trkpt lat="45.483004571443225" lon="7.960398545248798"><ele>624.0</ele><time>2026-03-27T16:13:54Z</time></trkpt><trkpt lat="45.48304532120789" lon="7.960312576617834"><ele>624.0</ele><time>2026-03-27T16:13:55Z</time></trkpt><trkpt lat="45.48308865924976" lon="7.960225951429884"><ele>624.0</ele><time>2026-03-27T16:13:56Z</time></trkpt><trkpt lat="45.48311612431997" lon="7.9601433646288475"><ele>624.0</ele><time>2026-03-27T16:13:57Z</time></trkpt><trkpt lat="45.48317661942472" lon="7.959991390652148"><ele>624.0</ele><time>2026-03-27T16:13:59Z</time></trkpt><trkpt lat="45.48324297237348" lon="7.959851662692038"><ele>622.4</ele><time>2026-03-27T16:14:01Z</time></trkpt><trkpt lat="45.48328464500465" lon="7.959721789141676"><ele>620.8</ele><time>2026-03-27T16:14:03Z</time></trkpt><trkpt lat="45.48333124473888" lon="7.959610792959566"><ele>619.2</ele><time>2026-03-27T16:14:05Z</time></trkpt><trkpt lat="45.48338939542949" lon="7.959517802336119"><ele>617.6</ele><time>2026-03-27T16:14:07Z</time></trkpt><trkpt lat="45.48341181838878" lon="7.959420233791941"><ele>616.0</ele><time>2026-03-27T16:14:10Z</time></trkpt><trkpt lat="45.483470317986146" lon="7.959304389049375"><ele>616.0</ele><time>2026-03-27T16:14:13Z</time></trkpt><trkpt lat="45.48349786695854" lon="7.959221531954621"><ele>616.0</ele><time>2026-03-27T16:14:16Z</time></trkpt><trkpt lat="45.483562706624056" lon="7.959100859582075"><ele>616.0</ele><time>2026-03-27T16:14:19Z</time></trkpt><trkpt lat="45.48360273069363" lon="7.959017045874237"><ele>616.0</ele><time>2026-03-27T16:14:20Z</time></trkpt><trkpt lat="45.483657874744125" lon="7.958909374765949"><ele>616.0</ele><time>2026-03-27T16:14:22Z</time></trkpt><trkpt lat="45.483687267066536" lon="7.958817064767542"><ele>616.0</ele><time>2026-03-27T16:14:24Z</time></trkpt><trkpt lat="45.48373313145126" lon="7.958674823976742"><ele>617.1666666666667</ele><time>2026-03-27T16:14:26Z</time></trkpt><trkpt lat="45.48379739735142" lon="7.958534740160655"><ele>618.3333333333334</ele><time>2026-03-27T16:14:28Z</time></trkpt><trkpt lat="45.48384991515163" lon="7.958388263850694"><ele>619.5</ele><time>2026-03-27T16:14:30Z</time></trkpt><trkpt lat="45.48387918698687" lon="7.958305316224072"><ele>620.6666666666666</ele><time>2026-03-27T16:14:31Z</time></trkpt><trkpt lat="45.483913377677084" lon="7.958229768493278"><ele>621.8333333333333</ele><time>2026-03-27T16:14:32Z</time></trkpt><trkpt lat="45.483970398120164" lon="7.958164579703083"><ele>623.0</ele><time>2026-03-27T16:14:33Z</time></trkpt><trkpt lat="45.48399716726531" lon="7.95803140552763"><ele>620.0</ele><time>2026-03-27T16:14:35Z</time></trkpt><trkpt lat="45.48403420295423" lon="7.957916381551822"><ele>617.0</ele><time>2026-03-27T16:14:37Z</time></trkpt><trkpt lat="45.484088533461275" lon="7.957771963556298"><ele>614.0</ele><time>2026-03-27T16:14:39Z</time></trkpt><trkpt lat="45.484133633688195" lon="7.957652441520609"><ele>611.0</ele><time>2026-03-27T16:14:41Z</time></trkpt><trkpt lat="45.48418804113885" lon="7.957498926210111"><ele>608.0</ele><time>2026-03-27T16:14:43Z</time></trkpt><trkpt lat="45.48423716538475" lon="7.957423578445761"><ele>604.1666666666666</ele><time>2026-03-27T16:14:44Z</time></trkpt><trkpt lat="45.48431090422008" lon="7.957278236172722"><ele>600.3333333333333</ele><time>2026-03-27T16:14:46Z</time></trkpt><trkpt lat="45.48435470489738" lon="7.957199596379303"><ele>596.5</ele><time>2026-03-27T16:14:47Z</time></trkpt><trkpt lat="45.48439793391233" lon="7.957128236068916"><ele>592.6666666666666</ele><time>2026-03-27T16:14:48Z</time></trkpt><trkpt lat="45.48443809306287" lon="7.957041577777564"><ele>588.8333333333334</ele><time>2026-03-27T16:14:49Z</time></trkpt><trkpt lat="45.48447101376258" lon="7.95695283644351"><ele>585.0</ele><time>2026-03-27T16:14:50Z</time></trkpt><trkpt lat="45.48450339683301" lon="7.956873236039343"><ele>585.0</ele><time>2026-03-27T16:14:51Z</time></trkpt><trkpt lat="45.484528536982474" lon="7.956777117609676"><ele>585.0</ele><time>2026-03-27T16:14:52Z</time></trkpt><trkpt lat="45.484556151863934" lon="7.956665358613511"><ele>585.0</ele><time>2026-03-27T16:14:53Z</time></trkpt><trkpt lat="45.48457970365764" lon="7.9565707631873455"><ele>585.0</ele><time>2026-03-27T16:14:54Z</time></trkpt><trkpt lat="45.48458989376193" lon="7.956474339981989"><ele>585.0</ele><time>2026-03-27T16:14:55Z</time></trkpt><trkpt lat="45.48456888014806" lon="7.956361849114272"><ele>585.0</ele><time>2026-03-27T16:14:57Z</time></trkpt><trkpt lat="45.48452800645563" lon="7.956288948805952"><ele>585.0</ele><time>2026-03-27T16:14:58Z</time></trkpt><trkpt lat="45.484499847693534" lon="7.956196390218265"><ele>583.0</ele><time>2026-03-27T16:14:59Z</time></trkpt><trkpt lat="45.48442889149958" lon="7.956129520673601"><ele>581.0</ele><time>2026-03-27T16:15:02Z</time></trkpt><trkpt lat="45.48434505774411" lon="7.956093171220744"><ele>579.0</ele><time>2026-03-27T16:15:03Z</time></trkpt><trkpt lat="45.48425997864196" lon="7.9560478788308355"><ele>577.0</ele><time>2026-03-27T16:15:04Z</time></trkpt><trkpt lat="45.484152096335286" lon="7.955940943095455"><ele>575.0</ele><time>2026-03-27T16:15:05Z</time></trkpt><trkpt lat="45.48405514943474" lon="7.9558341326191755"><ele>574.6</ele><time>2026-03-27T16:15:06Z</time></trkpt><trkpt lat="45.483978277226214" lon="7.955733512221664"><ele>574.2</ele><time>2026-03-27T16:15:07Z</time></trkpt><trkpt lat="45.4838735572615" lon="7.955684379072825"><ele>573.8</ele><time>2026-03-27T16:15:09Z</time></trkpt><trkpt lat="45.48377575495638" lon="7.955745948266099"><ele>573.4</ele><time>2026-03-27T16:15:11Z</time></trkpt><trkpt lat="45.4837197802974" lon="7.955839130808165"><ele>573.0</ele><time>2026-03-27T16:15:12Z</time></trkpt><trkpt lat="45.48366721581266" lon="7.955915573650744"><ele>571.3333333333334</ele><time>2026-03-27T16:15:13Z</time></trkpt><trkpt lat="45.48361568959822" lon="7.9559714228097"><ele>569.6666666666666</ele><time>2026-03-27T16:15:14Z</time></trkpt><trkpt lat="45.48354132216957" lon="7.956044314230827"><ele>568.0</ele><time>2026-03-27T16:15:15Z</time></trkpt><trkpt lat="45.483444663989154" lon="7.9561204799700525"><ele>566.3333333333333</ele><time>2026-03-27T16:15:16Z</time></trkpt><trkpt lat="45.483371222481075" lon="7.956174669143906"><ele>564.6666666666666</ele><time>2026-03-27T16:15:17Z</time></trkpt><trkpt lat="45.48331524136511" lon="7.95624130936588"><ele>563.0</ele><time>2026-03-27T16:15:18Z</time></trkpt><trkpt lat="45.483274802857075" lon="7.9563677245285005"><ele>563.0</ele><time>2026-03-27T16:15:19Z</time></trkpt><trkpt lat="45.48324463063271" lon="7.95647253472575"><ele>563.0</ele><time>2026-03-27T16:15:20Z</time></trkpt><trkpt lat="45.4831692850231" lon="7.956555549895259"><ele>563.0</ele><time>2026-03-27T16:15:21Z</time></trkpt><trkpt lat="45.48304498926981" lon="7.956636268338282"><ele>563.0</ele><time>2026-03-27T16:15:22Z</time></trkpt><trkpt lat="45.48291244075785" lon="7.956712105839828"><ele>560.8</ele><time>2026-03-27T16:15:23Z</time></trkpt><trkpt lat="45.48281203327225" lon="7.9567811946927804"><ele>558.5999999999999</ele><time>2026-03-27T16:15:24Z</time></trkpt><trkpt lat="45.482731362132654" lon="7.956839336123269"><ele>556.4000000000001</ele><time>2026-03-27T16:15:25Z</time></trkpt><trkpt lat="45.4826547238214" lon="7.956987559953816"><ele>554.2</ele><time>2026-03-27T16:15:27Z</time></trkpt><trkpt lat="45.48259609644748" lon="7.957050593869495"><ele>552.0</ele><time>2026-03-27T16:15:28Z</time></trkpt><trkpt lat="45.48255402463493" lon="7.9571297093254705"><ele>552.0</ele><time>2026-03-27T16:15:29Z</time></trkpt><trkpt lat="45.482523982095486" lon="7.9572603970636395"><ele>552.0</ele><time>2026-03-27T16:15:30Z</time></trkpt><trkpt lat="45.48247009648436" lon="7.957415595903011"><ele>552.0</ele><time>2026-03-27T16:15:31Z</time></trkpt><trkpt lat="45.482385685946504" lon="7.957555766225734"><ele>552.0</ele><time>2026-03-27T16:15:32Z</time></trkpt><trkpt lat="45.482319110261066" lon="7.957666357233184"><ele>552.2</ele><time>2026-03-27T16:15:33Z</time></trkpt><trkpt lat="45.48228742642164" lon="7.957744685850307"><ele>552.4000000000001</ele><time>2026-03-27T16:15:34Z</time></trkpt><trkpt lat="45.48220004154228" lon="7.957841415604689"><ele>552.5999999999999</ele><time>2026-03-27T16:15:36Z</time></trkpt><trkpt lat="45.48212457883811" lon="7.957978496091357"><ele>552.8</ele><time>2026-03-27T16:15:38Z</time></trkpt><trkpt lat="45.482096277049614" lon="7.958097745481711"><ele>553.0</ele><time>2026-03-27T16:15:39Z</time></trkpt><trkpt lat="45.48208715996579" lon="7.958208687004421"><ele>551.1999999999999</ele><time>2026-03-27T16:15:40Z</time></trkpt><trkpt lat="45.482072829943164" lon="7.958390365718183"><ele>549.4</ele><time>2026-03-27T16:15:42Z</time></trkpt><trkpt lat="45.48207806620036" lon="7.958489494319439"><ele>547.5999999999999</ele><time>2026-03-27T16:15:43Z</time></trkpt><trkpt lat="45.482021390734054" lon="7.958655606030251"><ele>545.8</ele><time>2026-03-27T16:15:45Z</time></trkpt><trkpt lat="45.48197682373788" lon="7.958741562120218"><ele>544.0</ele><time>2026-03-27T16:15:46Z</time></trkpt><trkpt lat="45.48194099761626" lon="7.9588206579625"><ele>544.0</ele><time>2026-03-27T16:15:47Z</time></trkpt><trkpt lat="45.481885978836914" lon="7.958899592870648"><ele>544.0</ele><time>2026-03-27T16:15:48Z</time></trkpt><trkpt lat="45.48180466942316" lon="7.958968680763939"><ele>544.0</ele><time>2026-03-27T16:15:49Z</time></trkpt><trkpt lat="45.48171589937382" lon="7.959053335969834"><ele>544.0</ele><time>2026-03-27T16:15:50Z</time></trkpt><trkpt lat="45.481647321893824" lon="7.959099771454931"><ele>544.0</ele><time>2026-03-27T16:15:51Z</time></trkpt><trkpt lat="45.481586319368674" lon="7.959195748176633"><ele>544.0</ele><time>2026-03-27T16:15:52Z</time></trkpt><trkpt lat="45.4815516058611" lon="7.959320564025517"><ele>545.5</ele><time>2026-03-27T16:15:53Z</time></trkpt><trkpt lat="45.48152483775117" lon="7.959437723765773"><ele>547.0</ele><time>2026-03-27T16:15:54Z</time></trkpt><trkpt lat="45.48149967503738" lon="7.959542081117324"><ele>548.5</ele><time>2026-03-27T16:15:55Z</time></trkpt><trkpt lat="45.481447023411015" lon="7.95964606304138"><ele>550.0</ele><time>2026-03-27T16:15:56Z</time></trkpt><trkpt lat="45.481387592064024" lon="7.959735770459213"><ele>551.5</ele><time>2026-03-27T16:15:57Z</time></trkpt><trkpt lat="45.48132739810404" lon="7.959805274466899"><ele>553.0</ele><time>2026-03-27T16:15:58Z</time></trkpt><trkpt lat="45.481274174187135" lon="7.959868257137137"><ele>551.6</ele><time>2026-03-27T16:15:59Z</time></trkpt><trkpt lat="45.48118422964299" lon="7.959978860395677"><ele>550.1999999999999</ele><time>2026-03-27T16:16:00Z</time></trkpt><trkpt lat="45.48111182601975" lon="7.960134810298657"><ele>548.8</ele><time>2026-03-27T16:16:01Z</time></trkpt><trkpt lat="45.48103641550255" lon="7.960258231870699"><ele>547.4</ele><time>2026-03-27T16:16:02Z</time></trkpt><trkpt lat="45.48101209506222" lon="7.960364326989281"><ele>546.0</ele><time>2026-03-27T16:16:03Z</time></trkpt><trkpt lat="45.48093676010392" lon="7.960483880205539"><ele>546.0</ele><time>2026-03-27T16:16:04Z</time></trkpt><trkpt lat="45.480870896359576" lon="7.960591959410452"><ele>546.0</ele><time>2026-03-27T16:16:05Z</time></trkpt><trkpt lat="45.480783939391316" lon="7.960731047467766"><ele>546.0</ele><time>2026-03-27T16:16:06Z</time></trkpt><trkpt lat="45.4806986488125" lon="7.96083795057904"><ele>546.0</ele><time>2026-03-27T16:16:07Z</time></trkpt><trkpt lat="45.480617315259174" lon="7.960951948144591"><ele>545.2</ele><time>2026-03-27T16:16:08Z</time></trkpt><trkpt lat="45.48055001759172" lon="7.961090583530396"><ele>544.4000000000001</ele><time>2026-03-27T16:16:09Z</time></trkpt><trkpt lat="45.48050835578403" lon="7.961171512922329"><ele>543.6</ele><time>2026-03-27T16:16:10Z</time></trkpt><trkpt lat="45.48042842898024" lon="7.96123380041142"><ele>542.8000000000001</ele><time>2026-03-27T16:16:11Z</time></trkpt><trkpt lat="45.48038913269115" lon="7.9613115876166"><ele>542.0</ele><time>2026-03-27T16:16:12Z</time></trkpt><trkpt lat="45.480268980358325" lon="7.961338300961989"><ele>542.0</ele><time>2026-03-27T16:16:14Z</time></trkpt><trkpt lat="45.48016620422526" lon="7.961358374047734"><ele>542.0</ele><time>2026-03-27T16:16:15Z</time></trkpt><trkpt lat="45.48007511156936" lon="7.961397180741626"><ele>542.0</ele><time>2026-03-27T16:16:16Z</time></trkpt><trkpt lat="45.4800159614663" lon="7.961440240957764"><ele>542.0</ele><time>2026-03-27T16:16:17Z</time></trkpt><trkpt lat="45.47994807819559" lon="7.961468740441666"><ele>542.0</ele><time>2026-03-27T16:16:18Z</time></trkpt><trkpt lat="45.479892287413996" lon="7.961554476889726"><ele>542.0</ele><time>2026-03-27T16:16:19Z</time></trkpt><trkpt lat="45.47980644591571" lon="7.961681140577832"><ele>543.4</ele><time>2026-03-27T16:16:20Z</time></trkpt><trkpt lat="45.47971045056783" lon="7.961832433036211"><ele>544.8000000000001</ele><time>2026-03-27T16:16:21Z</time></trkpt><trkpt lat="45.4796397662685" lon="7.961954211059222"><ele>546.2</ele><time>2026-03-27T16:16:22Z</time></trkpt><trkpt lat="45.479605021447114" lon="7.962053904627574"><ele>547.6</ele><time>2026-03-27T16:16:23Z</time></trkpt><trkpt lat="45.47956565055218" lon="7.962171523589431"><ele>549.0</ele><time>2026-03-27T16:16:24Z</time></trkpt><trkpt lat="45.47951920811088" lon="7.962334195240873"><ele>547.8</ele><time>2026-03-27T16:16:25Z</time></trkpt><trkpt lat="45.4794726134424" lon="7.962442833385439"><ele>546.5999999999999</ele><time>2026-03-27T16:16:26Z</time></trkpt><trkpt lat="45.479422118530636" lon="7.962506335665683"><ele>545.4</ele><time>2026-03-27T16:16:27Z</time></trkpt><trkpt lat="45.479355583368964" lon="7.962628072125787"><ele>544.1999999999999</ele><time>2026-03-27T16:16:28Z</time></trkpt><trkpt lat="45.47927260064342" lon="7.96271725446047"><ele>543.0</ele><time>2026-03-27T16:16:29Z</time></trkpt><trkpt lat="45.47920662233168" lon="7.962812514566679"><ele>543.0</ele><time>2026-03-27T16:16:30Z</time></trkpt><trkpt lat="45.47915632548177" lon="7.962900712297093"><ele>543.0</ele><time>2026-03-27T16:16:31Z</time></trkpt><trkpt lat="45.47912989528383" lon="7.9629845941674"><ele>543.0</ele><time>2026-03-27T16:16:32Z</time></trkpt><trkpt lat="45.4790745902838" lon="7.963054164771823"><ele>543.0</ele><time>2026-03-27T16:16:33Z</time></trkpt><trkpt lat="45.47898354024207" lon="7.963101597507887"><ele>543.0</ele><time>2026-03-27T16:16:34Z</time></trkpt><trkpt lat="45.478886172521115" lon="7.963153894255417"><ele>543.0</ele><time>2026-03-27T16:16:35Z</time></trkpt><trkpt lat="45.47879734938809" lon="7.963215080767528"><ele>540.6666666666666</ele><time>2026-03-27T16:16:36Z</time></trkpt><trkpt lat="45.47871285004713" lon="7.963266315711314"><ele>538.3333333333334</ele><time>2026-03-27T16:16:37Z</time></trkpt><trkpt lat="45.4786544856141" lon="7.963322673942916"><ele>536.0</ele><time>2026-03-27T16:16:38Z</time></trkpt><trkpt lat="45.47858694839563" lon="7.963364360699101"><ele>533.6666666666667</ele><time>2026-03-27T16:16:39Z</time></trkpt><trkpt lat="45.47850675383887" lon="7.963404596272823"><ele>531.3333333333334</ele><time>2026-03-27T16:16:40Z</time></trkpt><trkpt lat="45.47843058572952" lon="7.963431625907587"><ele>529.0</ele><time>2026-03-27T16:16:41Z</time></trkpt><trkpt lat="45.478350214495194" lon="7.96347334686389"><ele>529.0</ele><time>2026-03-27T16:16:42Z</time></trkpt><trkpt lat="45.47828447700436" lon="7.963540882313171"><ele>529.0</ele><time>2026-03-27T16:16:43Z</time></trkpt><trkpt lat="45.47824060352504" lon="7.963619786542011"><ele>529.0</ele><time>2026-03-27T16:16:44Z</time></trkpt><trkpt lat="45.47820907165688" lon="7.963713538388684"><ele>529.0</ele><time>2026-03-27T16:16:45Z</time></trkpt><trkpt lat="45.478192956744984" lon="7.96383234068568"><ele>529.0</ele><time>2026-03-27T16:16:46Z</time></trkpt><trkpt lat="45.47818378466372" lon="7.963954824852372"><ele>529.0</ele><time>2026-03-27T16:16:47Z</time></trkpt><trkpt lat="45.47817080731689" lon="7.964071702591376"><ele>529.0</ele><time>2026-03-27T16:16:48Z</time></trkpt><trkpt lat="45.47814555831006" lon="7.964183850694216"><ele>529.0</ele><time>2026-03-27T16:16:49Z</time></trkpt><trkpt lat="45.47810970761013" lon="7.964298306447168"><ele>529.0</ele><time>2026-03-27T16:16:50Z</time></trkpt><trkpt lat="45.47806003883028" lon="7.9643990184579945"><ele>529.0</ele><time>2026-03-27T16:16:51Z</time></trkpt><trkpt lat="45.47801418496781" lon="7.964496459961762"><ele>529.0</ele><time>2026-03-27T16:16:52Z</time></trkpt><trkpt lat="45.47797426847924" lon="7.964578079996019"><ele>529.0</ele><time>2026-03-27T16:16:53Z</time></trkpt><trkpt lat="45.47793544786693" lon="7.964672561434214"><ele>532.1666666666667</ele><time>2026-03-27T16:16:54Z</time></trkpt><trkpt lat="45.47790681715649" lon="7.96477707481965"><ele>535.3333333333334</ele><time>2026-03-27T16:16:55Z</time></trkpt><trkpt lat="45.47790346991705" lon="7.964895685709647"><ele>538.5</ele><time>2026-03-27T16:16:56Z</time></trkpt><trkpt lat="45.47791298358553" lon="7.965014852324156"><ele>541.6666666666666</ele><time>2026-03-27T16:16:57Z</time></trkpt><trkpt lat="45.477930758362405" lon="7.9651240116754485"><ele>544.8333333333333</ele><time>2026-03-27T16:16:58Z</time></trkpt><trkpt lat="45.47793395158635" lon="7.965247103664807"><ele>548.0</ele><time>2026-03-27T16:16:59Z</time></trkpt><trkpt lat="45.47793583172646" lon="7.965375718884037"><ele>542.6</ele><time>2026-03-27T16:17:00Z</time></trkpt><trkpt lat="45.477928139273175" lon="7.965486047596087"><ele>537.1999999999999</ele><time>2026-03-27T16:17:01Z</time></trkpt><trkpt lat="45.477896965472226" lon="7.965605435088626"><ele>531.8</ele><time>2026-03-27T16:17:02Z</time></trkpt><trkpt lat="45.47784578283138" lon="7.965735324625939"><ele>526.4</ele><time>2026-03-27T16:17:03Z</time></trkpt><trkpt lat="45.477785531900835" lon="7.965846387826175"><ele>521.0</ele><time>2026-03-27T16:17:04Z</time></trkpt><trkpt lat="45.47774273635971" lon="7.9659645305111955"><ele>521.0</ele><time>2026-03-27T16:17:05Z</time></trkpt><trkpt lat="45.47770455509707" lon="7.96608714973932"><ele>521.0</ele><time>2026-03-27T16:17:06Z</time></trkpt><trkpt lat="45.47764463990924" lon="7.966179126221923"><ele>521.0</ele><time>2026-03-27T16:17:07Z</time></trkpt><trkpt lat="45.47757852149628" lon="7.966276696866703"><ele>521.0</ele><time>2026-03-27T16:17:08Z</time></trkpt><trkpt lat="45.47751153109258" lon="7.966366593440456"><ele>521.0</ele><time>2026-03-27T16:17:09Z</time></trkpt><trkpt lat="45.477463637099895" lon="7.96645481544113"><ele>521.0</ele><time>2026-03-27T16:17:10Z</time></trkpt><trkpt lat="45.477428436224464" lon="7.96653967522758"><ele>521.0</ele><time>2026-03-27T16:17:11Z</time></trkpt><trkpt lat="45.47737922851905" lon="7.966655130883118"><ele>521.0</ele><time>2026-03-27T16:17:13Z</time></trkpt><trkpt lat="45.477312081948966" lon="7.966609551690194"><ele>521.0</ele><time>2026-03-27T16:17:15Z</time></trkpt><trkpt lat="45.47732719200111" lon="7.966476232516428"><ele>521.0</ele><time>2026-03-27T16:17:17Z</time></trkpt><trkpt lat="45.47736717241784" lon="7.966375872608026"><ele>521.0</ele><time>2026-03-27T16:17:18Z</time></trkpt><trkpt lat="45.47743194365303" lon="7.966274381466841"><ele>521.0</ele><time>2026-03-27T16:17:19Z</time></trkpt><trkpt lat="45.47748134812406" lon="7.966187289051838"><ele>521.0</ele><time>2026-03-27T16:17:20Z</time></trkpt><trkpt lat="45.47754258787409" lon="7.96607989878708"><ele>521.0</ele><time>2026-03-27T16:17:22Z</time></trkpt><trkpt lat="45.47751651133736" lon="7.9659816064530835"><ele>521.0</ele><time>2026-03-27T16:17:24Z</time></trkpt><trkpt lat="45.477450252142056" lon="7.966015678221838"><ele>521.0</ele><time>2026-03-27T16:17:26Z</time></trkpt><trkpt lat="45.47737661712549" lon="7.966152657930408"><ele>521.0</ele><time>2026-03-27T16:17:28Z</time></trkpt><trkpt lat="45.47732568259168" lon="7.9662604507864705"><ele>521.0</ele><time>2026-03-27T16:17:29Z</time></trkpt><trkpt lat="45.477255862097216" lon="7.966345711407843"><ele>521.0</ele><time>2026-03-27T16:17:30Z</time></trkpt><trkpt lat="45.47718934679574" lon="7.966445802407289"><ele>521.0</ele><time>2026-03-27T16:17:31Z</time></trkpt><trkpt lat="45.47715613779481" lon="7.9665558939742525"><ele>521.0</ele><time>2026-03-27T16:17:32Z</time></trkpt><trkpt lat="45.47712882793257" lon="7.966657785844055"><ele>521.0</ele><time>2026-03-27T16:17:33Z</time></trkpt><trkpt lat="45.47709936527739" lon="7.966790385098597"><ele>521.0</ele><time>2026-03-27T16:17:35Z</time></trkpt><trkpt lat="45.47701737483912" lon="7.966790869458464"><ele>517.0</ele><time>2026-03-27T16:17:38Z</time></trkpt><trkpt lat="45.47702208626836" lon="7.966664978164002"><ele>513.0</ele><time>2026-03-27T16:17:40Z</time></trkpt><trkpt lat="45.477043187862996" lon="7.966563766822312"><ele>509.0</ele><time>2026-03-27T16:17:41Z</time></trkpt><trkpt lat="45.47704705404786" lon="7.966439775205392"><ele>505.0</ele><time>2026-03-27T16:17:42Z</time></trkpt><trkpt lat="45.47702645185024" lon="7.966324459445573"><ele>500.99999999999994</ele><time>2026-03-27T16:17:43Z</time></trkpt><trkpt lat="45.47702828955161" lon="7.966209665180278"><ele>497.0</ele><time>2026-03-27T16:17:44Z</time></trkpt><trkpt lat="45.47704556516701" lon="7.96609525462812"><ele>496.99999999999994</ele><time>2026-03-27T16:17:45Z</time></trkpt><trkpt lat="45.47706253043409" lon="7.965978952975506"><ele>497.0</ele><time>2026-03-27T16:17:46Z</time></trkpt><trkpt lat="45.477101797550745" lon="7.965868804612181"><ele>497.0</ele><time>2026-03-27T16:17:47Z</time></trkpt><trkpt lat="45.477142397274825" lon="7.965749209360818"><ele>497.0</ele><time>2026-03-27T16:17:48Z</time></trkpt><trkpt lat="45.47718657984501" lon="7.965634826616281"><ele>496.99999999999994</ele><time>2026-03-27T16:17:49Z</time></trkpt><trkpt lat="45.47721807691755" lon="7.965530681143868"><ele>497.0</ele><time>2026-03-27T16:17:50Z</time></trkpt><trkpt lat="45.47724792800915" lon="7.96543522859771"><ele>497.49999999999994</ele><time>2026-03-27T16:17:51Z</time></trkpt><trkpt lat="45.47726364138372" lon="7.965336523689656"><ele>498.0</ele><time>2026-03-27T16:17:52Z</time></trkpt><trkpt lat="45.47726714613076" lon="7.965224138706838"><ele>498.5</ele><time>2026-03-27T16:17:53Z</time></trkpt><trkpt lat="45.47726791154224" lon="7.965090711234449"><ele>499.0</ele><time>2026-03-27T16:17:54Z</time></trkpt><trkpt lat="45.47726827952085" lon="7.964961302052941"><ele>499.49999999999994</ele><time>2026-03-27T16:17:55Z</time></trkpt><trkpt lat="45.47727711094807" lon="7.964843387343567"><ele>500.0</ele><time>2026-03-27T16:17:56Z</time></trkpt><trkpt lat="45.47728413961346" lon="7.964743089024671"><ele>500.0</ele><time>2026-03-27T16:17:57Z</time></trkpt><trkpt lat="45.47728040782678" lon="7.964642175378314"><ele>500.0</ele><time>2026-03-27T16:17:58Z</time></trkpt><trkpt lat="45.4772560310456" lon="7.964533992690027"><ele>500.0</ele><time>2026-03-27T16:17:59Z</time></trkpt><trkpt lat="45.47722933714698" lon="7.9644343673583196"><ele>500.0</ele><time>2026-03-27T16:18:00Z</time></trkpt><trkpt lat="45.47719655213649" lon="7.964342886776299"><ele>500.0</ele><time>2026-03-27T16:18:01Z</time></trkpt><trkpt lat="45.47716179437084" lon="7.964246474474947"><ele>500.0</ele><time>2026-03-27T16:18:02Z</time></trkpt><trkpt lat="45.4771384737599" lon="7.964145690283913"><ele>500.0</ele><time>2026-03-27T16:18:03Z</time></trkpt><trkpt lat="45.477117413867624" lon="7.964045261670235"><ele>498.8333333333333</ele><time>2026-03-27T16:18:04Z</time></trkpt><trkpt lat="45.47711660839813" lon="7.96393836062117"><ele>497.66666666666663</ele><time>2026-03-27T16:18:05Z</time></trkpt><trkpt lat="45.47713170835522" lon="7.96381976682387"><ele>496.5</ele><time>2026-03-27T16:18:06Z</time></trkpt><trkpt lat="45.47715303615954" lon="7.963687698767652"><ele>495.33333333333337</ele><time>2026-03-27T16:18:07Z</time></trkpt><trkpt lat="45.477141333839995" lon="7.963578291491272"><ele>494.1666666666667</ele><time>2026-03-27T16:18:08Z</time></trkpt><trkpt lat="45.47712553255974" lon="7.963479135136374"><ele>493.0</ele><time>2026-03-27T16:18:09Z</time></trkpt><trkpt lat="45.47710424156295" lon="7.9633863765155075"><ele>493.0</ele><time>2026-03-27T16:18:10Z</time></trkpt><trkpt lat="45.47709659078093" lon="7.963293108339637"><ele>492.99999999999994</ele><time>2026-03-27T16:18:11Z</time></trkpt><trkpt lat="45.477101864493676" lon="7.963163236139741"><ele>492.99999999999994</ele><time>2026-03-27T16:18:12Z</time></trkpt><trkpt lat="45.47710836444764" lon="7.963023789695702"><ele>493.0</ele><time>2026-03-27T16:18:13Z</time></trkpt><trkpt lat="45.4771018049691" lon="7.96288234591043"><ele>493.0</ele><time>2026-03-27T16:18:14Z</time></trkpt><trkpt lat="45.47707832983655" lon="7.962740887577746"><ele>486.2</ele><time>2026-03-27T16:18:15Z</time></trkpt><trkpt lat="45.477060323806306" lon="7.962597550271399"><ele>479.4</ele><time>2026-03-27T16:18:16Z</time></trkpt><trkpt lat="45.477045009021545" lon="7.9624444852945375"><ele>472.59999999999997</ele><time>2026-03-27T16:18:17Z</time></trkpt><trkpt lat="45.47703054923824" lon="7.962300598555496"><ele>465.79999999999995</ele><time>2026-03-27T16:18:18Z</time></trkpt><trkpt lat="45.47701349784553" lon="7.962157388396302"><ele>459.0</ele><time>2026-03-27T16:18:19Z</time></trkpt><trkpt lat="45.47699939203966" lon="7.962027333776601"><ele>458.0</ele><time>2026-03-27T16:18:20Z</time></trkpt><trkpt lat="45.47697064465956" lon="7.961898236525889"><ele>457.0</ele><time>2026-03-27T16:18:21Z</time></trkpt><trkpt lat="45.4769407278446" lon="7.961780740373594"><ele>456.0</ele><time>2026-03-27T16:18:22Z</time></trkpt><trkpt lat="45.476923299095255" lon="7.961650900897289"><ele>455.0</ele><time>2026-03-27T16:18:23Z</time></trkpt><trkpt lat="45.47691477194856" lon="7.961551795800851"><ele>454.0</ele><time>2026-03-27T16:18:24Z</time></trkpt><trkpt lat="45.476928860210265" lon="7.961444459947154"><ele>453.0</ele><time>2026-03-27T16:18:25Z</time></trkpt><trkpt lat="45.47696848228512" lon="7.961297109876475"><ele>452.0</ele><time>2026-03-27T16:18:26Z</time></trkpt><trkpt lat="45.47703127842823" lon="7.961141945919945"><ele>451.0</ele><time>2026-03-27T16:18:27Z</time></trkpt><trkpt lat="45.47709683536673" lon="7.960983382435662"><ele>450.0</ele><time>2026-03-27T16:18:28Z</time></trkpt><trkpt lat="45.47714023406454" lon="7.960845197360639"><ele>449.0</ele><time>2026-03-27T16:18:29Z</time></trkpt><trkpt lat="45.47717242359566" lon="7.960705466902197"><ele>452.79999999999995</ele><time>2026-03-27T16:18:30Z</time></trkpt><trkpt lat="45.47721373520994" lon="7.960569291070675"><ele>456.59999999999997</ele><time>2026-03-27T16:18:31Z</time></trkpt><trkpt lat="45.477260200331706" lon="7.960425212534103"><ele>460.4</ele><time>2026-03-27T16:18:32Z</time></trkpt><trkpt lat="45.47729665498387" lon="7.960286026036485"><ele>464.2</ele><time>2026-03-27T16:18:33Z</time></trkpt><trkpt lat="45.47733658406259" lon="7.960165149949545"><ele>468.0</ele><time>2026-03-27T16:18:34Z</time></trkpt><trkpt lat="45.477380104358446" lon="7.960042721962768"><ele>465.59999999999997</ele><time>2026-03-27T16:18:35Z</time></trkpt><trkpt lat="45.47741498462776" lon="7.959905929050834"><ele>463.19999999999993</ele><time>2026-03-27T16:18:36Z</time></trkpt><trkpt lat="45.477438146737065" lon="7.959767489994242"><ele>460.8</ele><time>2026-03-27T16:18:37Z</time></trkpt><trkpt lat="45.47745986621942" lon="7.959631309703135"><ele>458.4</ele><time>2026-03-27T16:18:38Z</time></trkpt><trkpt lat="45.47750074225654" lon="7.959510145651769"><ele>456.0</ele><time>2026-03-27T16:18:39Z</time></trkpt><trkpt lat="45.47752858565139" lon="7.959414871643949"><ele>456.0</ele><time>2026-03-27T16:18:40Z</time></trkpt><trkpt lat="45.47755966309464" lon="7.9593326189277525"><ele>456.0</ele><time>2026-03-27T16:18:41Z</time></trkpt><trkpt lat="45.47762437187193" lon="7.959235016079142"><ele>456.0</ele><time>2026-03-27T16:18:43Z</time></trkpt><trkpt lat="45.47754244361848" lon="7.959219250942814"><ele>456.0</ele><time>2026-03-27T16:18:46Z</time></trkpt><trkpt lat="45.47748657467292" lon="7.959315076123697"><ele>456.0</ele><time>2026-03-27T16:18:48Z</time></trkpt><trkpt lat="45.47738339469449" lon="7.959392178393275"><ele>456.0</ele><time>2026-03-27T16:18:49Z</time></trkpt><trkpt lat="45.47729478264389" lon="7.95943595793826"><ele>456.0</ele><time>2026-03-27T16:18:50Z</time></trkpt><trkpt lat="45.47723023331514" lon="7.959451458114969"><ele>456.0</ele><time>2026-03-27T16:18:51Z</time></trkpt><trkpt lat="45.47716816475613" lon="7.959425254365095"><ele>456.0</ele><time>2026-03-27T16:18:52Z</time></trkpt><trkpt lat="45.47706966512222" lon="7.959307961418292"><ele>440.0</ele><time>2026-03-27T16:18:54Z</time></trkpt><trkpt lat="45.47703846788415" lon="7.959205811978182"><ele>440.0</ele><time>2026-03-27T16:18:55Z</time></trkpt></trkseg></trk></gpx>